<?xml version="1.0" encoding="UTF-8" standalone="no" ?><gpx xmlns="http://www.topografix.com/GPX/1/1" xmlns:gpxx="http://www.garmin.com/xmlschemas/GpxExtensions/v3" xmlns:wptx1="http://www.garmin.com/xmlschemas/WaypointExtension/v1" xmlns:gpxtpx="http://www.garmin.com/xmlschemas/TrackPointExtension/v1" creator="GPSMAP 62s" version="1.1" xmlns:xsi="http://www.w3.org/2001/XMLSchema-instance" xsi:schemaLocation="http://www.topografix.com/GPX/1/1 http://www.topografix.com/GPX/1/1/gpx.xsd http://www.garmin.com/xmlschemas/GpxExtensions/v3 http://www8.garmin.com/xmlschemas/GpxExtensionsv3.xsd http://www.garmin.com/xmlschemas/WaypointExtension/v1 http://www8.garmin.com/xmlschemas/WaypointExtensionv1.xsd http://www.garmin.com/xmlschemas/TrackPointExtension/v1 http://www.garmin.com/xmlschemas/TrackPointExtensionv1.xsd"><metadata><link href="http://www.garmin.com"><text>Garmin International</text></link><time>2026-04-25T15:19:38Z</time></metadata><trk><name>2026-04-25 19:19:34</name><extensions><gpxx:TrackExtension><gpxx:DisplayColor>Cyan</gpxx:DisplayColor></gpxx:TrackExtension></extensions><trkseg><trkpt lat="59.0562436637" lon="29.9798063748"><ele>81.37</ele><time>2026-04-25T08:02:32Z</time></trkpt><trkpt lat="59.0562087111" lon="29.9798018485"><ele>81.37</ele><time>2026-04-25T08:02:54Z</time></trkpt><trkpt lat="59.0562425740" lon="29.9797931314"><ele>81.37</ele><time>2026-04-25T08:03:16Z</time></trkpt><trkpt lat="59.0562616009" lon="29.9797692429"><ele>81.37</ele><time>2026-04-25T08:03:41Z</time></trkpt><trkpt lat="59.0561880078" lon="29.9797735177"><ele>81.85</ele><time>2026-04-25T08:03:57Z</time></trkpt><trkpt lat="59.0561976470" lon="29.9796128366"><ele>81.85</ele><time>2026-04-25T08:04:11Z</time></trkpt><trkpt lat="59.0561841521" lon="29.9793862738"><ele>81.85</ele><time>2026-04-25T08:04:27Z</time></trkpt><trkpt lat="59.0561103076" lon="29.9792459607"><ele>82.33</ele><time>2026-04-25T08:04:39Z</time></trkpt><trkpt lat="59.0560571663" lon="29.9791012052"><ele>82.33</ele><time>2026-04-25T08:04:52Z</time></trkpt><trkpt lat="59.0560362116" lon="29.9789196532"><ele>82.33</ele><time>2026-04-25T08:05:04Z</time></trkpt><trkpt lat="59.0560456831" lon="29.9786904920"><ele>81.85</ele><time>2026-04-25T08:05:18Z</time></trkpt><trkpt lat="59.0560352057" lon="29.9784824532"><ele>82.33</ele><time>2026-04-25T08:05:31Z</time></trkpt><trkpt lat="59.0560311824" lon="29.9783915095"><ele>82.33</ele><time>2026-04-25T08:05:51Z</time></trkpt><trkpt lat="59.0559974872" lon="29.9782738276"><ele>82.33</ele><time>2026-04-25T08:06:02Z</time></trkpt><trkpt lat="59.0560220461" lon="29.9782467540"><ele>82.33</ele><time>2026-04-25T08:06:20Z</time></trkpt><trkpt lat="59.0560269915" lon="29.9782284815"><ele>81.37</ele><time>2026-04-25T08:06:41Z</time></trkpt><trkpt lat="59.0560199507" lon="29.9783568084"><ele>81.85</ele><time>2026-04-25T08:07:06Z</time></trkpt><trkpt lat="59.0560388938" lon="29.9782862328"><ele>81.85</ele><time>2026-04-25T08:07:28Z</time></trkpt><trkpt lat="59.0559930447" lon="29.9782336783"><ele>81.85</ele><time>2026-04-25T08:07:58Z</time></trkpt><trkpt lat="59.0559936315" lon="29.9783298187"><ele>81.37</ele><time>2026-04-25T08:08:26Z</time></trkpt><trkpt lat="59.0560170170" lon="29.9783317465"><ele>81.85</ele><time>2026-04-25T08:08:52Z</time></trkpt><trkpt lat="59.0560096409" lon="29.9784015678"><ele>81.85</ele><time>2026-04-25T08:09:17Z</time></trkpt><trkpt lat="59.0561435837" lon="29.9784253724"><ele>82.33</ele><time>2026-04-25T08:09:34Z</time></trkpt><trkpt lat="59.0562188532" lon="29.9784934334"><ele>82.33</ele><time>2026-04-25T08:09:49Z</time></trkpt><trkpt lat="59.0562895965" lon="29.9785606563"><ele>82.33</ele><time>2026-04-25T08:10:00Z</time></trkpt><trkpt lat="59.0563870780" lon="29.9786621612"><ele>81.85</ele><time>2026-04-25T08:10:14Z</time></trkpt><trkpt lat="59.0565190930" lon="29.9787256122"><ele>82.33</ele><time>2026-04-25T08:10:28Z</time></trkpt><trkpt lat="59.0566337574" lon="29.9787068367"><ele>81.85</ele><time>2026-04-25T08:10:42Z</time></trkpt><trkpt lat="59.0567500982" lon="29.9787245225"><ele>82.33</ele><time>2026-04-25T08:10:56Z</time></trkpt><trkpt lat="59.0568531957" lon="29.9786974490"><ele>82.33</ele><time>2026-04-25T08:11:11Z</time></trkpt><trkpt lat="59.0569227654" lon="29.9787073396"><ele>82.33</ele><time>2026-04-25T08:11:23Z</time></trkpt><trkpt lat="59.0569646750" lon="29.9787610676"><ele>82.33</ele><time>2026-04-25T08:11:39Z</time></trkpt><trkpt lat="59.0569572989" lon="29.9787919968"><ele>81.85</ele><time>2026-04-25T08:12:11Z</time></trkpt><trkpt lat="59.0569982026" lon="29.9787839502"><ele>81.85</ele><time>2026-04-25T08:12:36Z</time></trkpt><trkpt lat="59.0570516791" lon="29.9788449705"><ele>81.85</ele><time>2026-04-25T08:12:53Z</time></trkpt><trkpt lat="59.0571240149" lon="29.9789269455"><ele>81.85</ele><time>2026-04-25T08:13:08Z</time></trkpt><trkpt lat="59.0572376736" lon="29.9789246824"><ele>81.85</ele><time>2026-04-25T08:13:26Z</time></trkpt><trkpt lat="59.0573756397" lon="29.9790309649"><ele>82.33</ele><time>2026-04-25T08:13:44Z</time></trkpt><trkpt lat="59.0574635658" lon="29.9791426118"><ele>82.33</ele><time>2026-04-25T08:13:59Z</time></trkpt><trkpt lat="59.0574859455" lon="29.9791875388"><ele>82.81</ele><time>2026-04-25T08:14:08Z</time></trkpt><trkpt lat="59.0575521626" lon="29.9791742954"><ele>82.33</ele><time>2026-04-25T08:14:21Z</time></trkpt><trkpt lat="59.0576114226" lon="29.9792405963"><ele>82.33</ele><time>2026-04-25T08:14:35Z</time></trkpt><trkpt lat="59.0576686710" lon="29.9792990182"><ele>83.29</ele><time>2026-04-25T08:14:49Z</time></trkpt><trkpt lat="59.0577192977" lon="29.9792343937"><ele>82.33</ele><time>2026-04-25T08:15:01Z</time></trkpt><trkpt lat="59.0577729419" lon="29.9791785702"><ele>82.33</ele><time>2026-04-25T08:15:15Z</time></trkpt><trkpt lat="59.0578121692" lon="29.9791703559"><ele>82.33</ele><time>2026-04-25T08:15:30Z</time></trkpt><trkpt lat="59.0578569286" lon="29.9791943282"><ele>82.81</ele><time>2026-04-25T08:15:44Z</time></trkpt><trkpt lat="59.0579114109" lon="29.9792744592"><ele>82.81</ele><time>2026-04-25T08:16:01Z</time></trkpt><trkpt lat="59.0579031128" lon="29.9792871159"><ele>82.33</ele><time>2026-04-25T08:16:29Z</time></trkpt><trkpt lat="59.0579408314" lon="29.9792796560"><ele>82.33</ele><time>2026-04-25T08:16:56Z</time></trkpt><trkpt lat="59.0579693299" lon="29.9793070648"><ele>82.33</ele><time>2026-04-25T08:17:19Z</time></trkpt><trkpt lat="59.0580601059" lon="29.9794177059"><ele>81.85</ele><time>2026-04-25T08:17:35Z</time></trkpt><trkpt lat="59.0581456851" lon="29.9795119185"><ele>82.33</ele><time>2026-04-25T08:17:48Z</time></trkpt><trkpt lat="59.0581707470" lon="29.9795752019"><ele>82.81</ele><time>2026-04-25T08:18:02Z</time></trkpt><trkpt lat="59.0582355391" lon="29.9796175305"><ele>82.33</ele><time>2026-04-25T08:18:11Z</time></trkpt><trkpt lat="59.0583444200" lon="29.9796368089"><ele>82.33</ele><time>2026-04-25T08:18:25Z</time></trkpt><trkpt lat="59.0584092960" lon="29.9796294328"><ele>82.81</ele><time>2026-04-25T08:18:37Z</time></trkpt><trkpt lat="59.0584685560" lon="29.9796058796"><ele>82.81</ele><time>2026-04-25T08:18:49Z</time></trkpt><trkpt lat="59.0585055202" lon="29.9796058796"><ele>82.33</ele><time>2026-04-25T08:19:03Z</time></trkpt><trkpt lat="59.0585579071" lon="29.9795332924"><ele>81.85</ele><time>2026-04-25T08:19:17Z</time></trkpt><trkpt lat="59.0586356074" lon="29.9795031175"><ele>82.33</ele><time>2026-04-25T08:19:29Z</time></trkpt><trkpt lat="59.0587406326" lon="29.9794550054"><ele>82.33</ele><time>2026-04-25T08:19:45Z</time></trkpt><trkpt lat="59.0588161536" lon="29.9793692585"><ele>81.85</ele><time>2026-04-25T08:19:59Z</time></trkpt><trkpt lat="59.0588481724" lon="29.9793778080"><ele>81.85</ele><time>2026-04-25T08:20:26Z</time></trkpt><trkpt lat="59.0588408802" lon="29.9792928156"><ele>81.85</ele><time>2026-04-25T08:20:48Z</time></trkpt><trkpt lat="59.0588263795" lon="29.9793008622"><ele>82.33</ele><time>2026-04-25T08:21:13Z</time></trkpt><trkpt lat="59.0589415468" lon="29.9794974178"><ele>81.85</ele><time>2026-04-25T08:21:29Z</time></trkpt><trkpt lat="59.0590235218" lon="29.9795200489"><ele>82.33</ele><time>2026-04-25T08:21:47Z</time></trkpt><trkpt lat="59.0591337439" lon="29.9797151797"><ele>82.81</ele><time>2026-04-25T08:22:02Z</time></trkpt><trkpt lat="59.0592091810" lon="29.9797292612"><ele>82.33</ele><time>2026-04-25T08:22:16Z</time></trkpt><trkpt lat="59.0593767352" lon="29.9797746073"><ele>82.33</ele><time>2026-04-25T08:22:36Z</time></trkpt><trkpt lat="59.0594745521" lon="29.9798867572"><ele>82.33</ele><time>2026-04-25T08:22:52Z</time></trkpt><trkpt lat="59.0596079081" lon="29.9799423292"><ele>81.85</ele><time>2026-04-25T08:23:07Z</time></trkpt><trkpt lat="59.0596962534" lon="29.9799495377"><ele>82.33</ele><time>2026-04-25T08:23:22Z</time></trkpt><trkpt lat="59.0597182978" lon="29.9798238091"><ele>81.85</ele><time>2026-04-25T08:23:36Z</time></trkpt><trkpt lat="59.0596493147" lon="29.9797453545"><ele>82.33</ele><time>2026-04-25T08:24:15Z</time></trkpt><trkpt lat="59.0597512387" lon="29.9798212945"><ele>82.33</ele><time>2026-04-25T08:24:40Z</time></trkpt><trkpt lat="59.0599560086" lon="29.9798406567"><ele>82.33</ele><time>2026-04-25T08:25:00Z</time></trkpt><trkpt lat="59.0600842517" lon="29.9800231308"><ele>81.85</ele><time>2026-04-25T08:25:18Z</time></trkpt><trkpt lat="59.0602610260" lon="29.9802220333"><ele>82.33</ele><time>2026-04-25T08:25:36Z</time></trkpt><trkpt lat="59.0603538975" lon="29.9802576564"><ele>82.33</ele><time>2026-04-25T08:25:50Z</time></trkpt><trkpt lat="59.0604969766" lon="29.9803354405"><ele>82.33</ele><time>2026-04-25T08:26:06Z</time></trkpt><trkpt lat="59.0605947934" lon="29.9803516176"><ele>82.33</ele><time>2026-04-25T08:26:21Z</time></trkpt><trkpt lat="59.0607103799" lon="29.9804408848"><ele>82.33</ele><time>2026-04-25T08:26:38Z</time></trkpt><trkpt lat="59.0607289877" lon="29.9805639312"><ele>82.33</ele><time>2026-04-25T08:27:09Z</time></trkpt><trkpt lat="59.0607463382" lon="29.9805403780"><ele>81.85</ele><time>2026-04-25T08:27:35Z</time></trkpt><trkpt lat="59.0608386230" lon="29.9805347621"><ele>82.33</ele><time>2026-04-25T08:27:51Z</time></trkpt><trkpt lat="59.0609778464" lon="29.9806376081"><ele>82.33</ele><time>2026-04-25T08:28:11Z</time></trkpt><trkpt lat="59.0611099452" lon="29.9805997219"><ele>81.85</ele><time>2026-04-25T08:28:29Z</time></trkpt><trkpt lat="59.0612597298" lon="29.9806713033"><ele>82.33</ele><time>2026-04-25T08:28:47Z</time></trkpt><trkpt lat="59.0614334028" lon="29.9806389492"><ele>82.33</ele><time>2026-04-25T08:29:04Z</time></trkpt><trkpt lat="59.0615872107" lon="29.9805924296"><ele>82.33</ele><time>2026-04-25T08:29:25Z</time></trkpt><trkpt lat="59.0617266018" lon="29.9806635920"><ele>82.33</ele><time>2026-04-25T08:29:42Z</time></trkpt><trkpt lat="59.0617707744" lon="29.9807559606"><ele>82.33</ele><time>2026-04-25T08:30:02Z</time></trkpt><trkpt lat="59.0617535077" lon="29.9807812739"><ele>81.85</ele><time>2026-04-25T08:30:31Z</time></trkpt><trkpt lat="59.0618173778" lon="29.9806880672"><ele>80.89</ele><time>2026-04-25T08:31:02Z</time></trkpt><trkpt lat="59.0618235804" lon="29.9806925096"><ele>82.33</ele><time>2026-04-25T08:31:09Z</time></trkpt><trkpt lat="59.0618367400" lon="29.9806832895"><ele>81.37</ele><time>2026-04-25T08:31:30Z</time></trkpt><trkpt lat="59.0619033761" lon="29.9807711318"><ele>81.37</ele><time>2026-04-25T08:31:46Z</time></trkpt><trkpt lat="59.0619539190" lon="29.9807876442"><ele>81.85</ele><time>2026-04-25T08:32:03Z</time></trkpt><trkpt lat="59.0620726068" lon="29.9808744807"><ele>81.37</ele><time>2026-04-25T08:32:22Z</time></trkpt><trkpt lat="59.0621824935" lon="29.9808935914"><ele>81.37</ele><time>2026-04-25T08:32:41Z</time></trkpt><trkpt lat="59.0623238962" lon="29.9810695276"><ele>81.37</ele><time>2026-04-25T08:32:55Z</time></trkpt><trkpt lat="59.0623592678" lon="29.9810241815"><ele>81.37</ele><time>2026-04-25T08:33:12Z</time></trkpt><trkpt lat="59.0623095632" lon="29.9810425378"><ele>81.37</ele><time>2026-04-25T08:33:39Z</time></trkpt><trkpt lat="59.0622658934" lon="29.9809685256"><ele>81.37</ele><time>2026-04-25T08:34:05Z</time></trkpt><trkpt lat="59.0622939728" lon="29.9810738862"><ele>81.37</ele><time>2026-04-25T08:34:34Z</time></trkpt><trkpt lat="59.0623556636" lon="29.9808195792"><ele>80.89</ele><time>2026-04-25T08:34:57Z</time></trkpt><trkpt lat="59.0624188632" lon="29.9806998018"><ele>81.37</ele><time>2026-04-25T08:35:13Z</time></trkpt><trkpt lat="59.0624797158" lon="29.9805726483"><ele>80.41</ele><time>2026-04-25T08:35:30Z</time></trkpt><trkpt lat="59.0625938773" lon="29.9805739056"><ele>80.89</ele><time>2026-04-25T08:35:49Z</time></trkpt><trkpt lat="59.0626486111" lon="29.9805778451"><ele>80.41</ele><time>2026-04-25T08:36:07Z</time></trkpt><trkpt lat="59.0626890957" lon="29.9805943575"><ele>80.89</ele><time>2026-04-25T08:36:26Z</time></trkpt><trkpt lat="59.0627261437" lon="29.9804962054"><ele>80.89</ele><time>2026-04-25T08:36:42Z</time></trkpt><trkpt lat="59.0628422331" lon="29.9803827144"><ele>80.89</ele><time>2026-04-25T08:36:57Z</time></trkpt><trkpt lat="59.0629218612" lon="29.9803513661"><ele>80.41</ele><time>2026-04-25T08:37:12Z</time></trkpt><trkpt lat="59.0630242042" lon="29.9802766833"><ele>80.89</ele><time>2026-04-25T08:37:26Z</time></trkpt><trkpt lat="59.0631665289" lon="29.9801227916"><ele>80.41</ele><time>2026-04-25T08:37:43Z</time></trkpt><trkpt lat="59.0631146450" lon="29.9801004119"><ele>80.41</ele><time>2026-04-25T08:38:04Z</time></trkpt><trkpt lat="59.0630848892" lon="29.9800695665"><ele>80.41</ele><time>2026-04-25T08:38:35Z</time></trkpt><trkpt lat="59.0630685445" lon="29.9800310098"><ele>77.52</ele><time>2026-04-25T08:38:50Z</time></trkpt><trkpt lat="59.0630892478" lon="29.9800722487"><ele>86.66</ele><time>2026-04-25T08:38:51Z</time></trkpt><trkpt lat="59.0630856436" lon="29.9800714944"><ele>80.41</ele><time>2026-04-25T08:38:52Z</time></trkpt><trkpt lat="59.0631028265" lon="29.9800877552"><ele>79.45</ele><time>2026-04-25T08:38:56Z</time></trkpt><trkpt lat="59.0631584823" lon="29.9801066983"><ele>80.89</ele><time>2026-04-25T08:39:13Z</time></trkpt><trkpt lat="59.0632360987" lon="29.9801154155"><ele>80.89</ele><time>2026-04-25T08:39:27Z</time></trkpt><trkpt lat="59.0633288026" lon="29.9801048543"><ele>80.89</ele><time>2026-04-25T08:39:39Z</time></trkpt><trkpt lat="59.0633630846" lon="29.9800395593"><ele>80.89</ele><time>2026-04-25T08:39:55Z</time></trkpt><trkpt lat="59.0633534454" lon="29.9799341150"><ele>80.41</ele><time>2026-04-25T08:40:19Z</time></trkpt><trkpt lat="59.0634458978" lon="29.9800287466"><ele>80.89</ele><time>2026-04-25T08:40:37Z</time></trkpt><trkpt lat="59.0635776613" lon="29.9798616115"><ele>80.89</ele><time>2026-04-25T08:40:54Z</time></trkpt><trkpt lat="59.0636458062" lon="29.9798198696"><ele>80.89</ele><time>2026-04-25T08:41:08Z</time></trkpt><trkpt lat="59.0637833532" lon="29.9796974100"><ele>80.89</ele><time>2026-04-25T08:41:21Z</time></trkpt><trkpt lat="59.0638737939" lon="29.9796050414"><ele>80.89</ele><time>2026-04-25T08:41:36Z</time></trkpt><trkpt lat="59.0639582835" lon="29.9795258325"><ele>80.89</ele><time>2026-04-25T08:41:51Z</time></trkpt><trkpt lat="59.0640370734" lon="29.9794431869"><ele>80.89</ele><time>2026-04-25T08:42:13Z</time></trkpt><trkpt lat="59.0640281048" lon="29.9794633035"><ele>79.93</ele><time>2026-04-25T08:42:34Z</time></trkpt><trkpt lat="59.0640519932" lon="29.9794321228"><ele>80.41</ele><time>2026-04-25T08:42:54Z</time></trkpt><trkpt lat="59.0640880354" lon="29.9794509821"><ele>79.93</ele><time>2026-04-25T08:43:16Z</time></trkpt><trkpt lat="59.0641115885" lon="29.9794181250"><ele>80.41</ele><time>2026-04-25T08:43:40Z</time></trkpt><trkpt lat="59.0641098283" lon="29.9793472979"><ele>80.41</ele><time>2026-04-25T08:44:07Z</time></trkpt><trkpt lat="59.0640427731" lon="29.9793969188"><ele>80.41</ele><time>2026-04-25T08:44:33Z</time></trkpt><trkpt lat="59.0641684178" lon="29.9793876149"><ele>79.93</ele><time>2026-04-25T08:44:55Z</time></trkpt><trkpt lat="59.0643399116" lon="29.9792679213"><ele>79.93</ele><time>2026-04-25T08:45:12Z</time></trkpt><trkpt lat="59.0644397400" lon="29.9792001955"><ele>79.93</ele><time>2026-04-25T08:45:30Z</time></trkpt><trkpt lat="59.0645530634" lon="29.9790846929"><ele>79.45</ele><time>2026-04-25T08:45:47Z</time></trkpt><trkpt lat="59.0646233875" lon="29.9790772330"><ele>79.93</ele><time>2026-04-25T08:46:01Z</time></trkpt><trkpt lat="59.0647241380" lon="29.9788997043"><ele>79.45</ele><time>2026-04-25T08:46:16Z</time></trkpt><trkpt lat="59.0648113098" lon="29.9788764864"><ele>79.45</ele><time>2026-04-25T08:46:31Z</time></trkpt><trkpt lat="59.0649244655" lon="29.9788245186"><ele>79.93</ele><time>2026-04-25T08:46:49Z</time></trkpt><trkpt lat="59.0650014952" lon="29.9787087645"><ele>79.45</ele><time>2026-04-25T08:47:04Z</time></trkpt><trkpt lat="59.0650564805" lon="29.9787259474"><ele>79.45</ele><time>2026-04-25T08:47:23Z</time></trkpt><trkpt lat="59.0650451649" lon="29.9787749816"><ele>79.45</ele><time>2026-04-25T08:47:42Z</time></trkpt><trkpt lat="59.0650407225" lon="29.9785793480"><ele>79.45</ele><time>2026-04-25T08:47:59Z</time></trkpt><trkpt lat="59.0650367830" lon="29.9784572236"><ele>79.45</ele><time>2026-04-25T08:48:13Z</time></trkpt><trkpt lat="59.0650496073" lon="29.9785215128"><ele>79.45</ele><time>2026-04-25T08:48:30Z</time></trkpt><trkpt lat="59.0650645271" lon="29.9785031565"><ele>78.97</ele><time>2026-04-25T08:48:59Z</time></trkpt><trkpt lat="59.0650276467" lon="29.9783977121"><ele>79.93</ele><time>2026-04-25T08:49:23Z</time></trkpt><trkpt lat="59.0651232842" lon="29.9784148112"><ele>79.45</ele><time>2026-04-25T08:49:43Z</time></trkpt><trkpt lat="59.0652779303" lon="29.9783415534"><ele>79.45</ele><time>2026-04-25T08:50:01Z</time></trkpt><trkpt lat="59.0653277189" lon="29.9782579020"><ele>79.45</ele><time>2026-04-25T08:50:18Z</time></trkpt><trkpt lat="59.0653667785" lon="29.9782508612"><ele>79.93</ele><time>2026-04-25T08:50:38Z</time></trkpt><trkpt lat="59.0654852986" lon="29.9782063533"><ele>79.45</ele><time>2026-04-25T08:50:55Z</time></trkpt><trkpt lat="59.0655945987" lon="29.9781348556"><ele>79.45</ele><time>2026-04-25T08:51:11Z</time></trkpt><trkpt lat="59.0656913258" lon="29.9780584127"><ele>79.45</ele><time>2026-04-25T08:51:26Z</time></trkpt><trkpt lat="59.0658064093" lon="29.9779257271"><ele>79.45</ele><time>2026-04-25T08:51:40Z</time></trkpt><trkpt lat="59.0658712015" lon="29.9778696522"><ele>78.97</ele><time>2026-04-25T08:51:55Z</time></trkpt><trkpt lat="59.0658726264" lon="29.9778704066"><ele>79.45</ele><time>2026-04-25T08:52:21Z</time></trkpt><trkpt lat="59.0658634901" lon="29.9778150022"><ele>79.93</ele><time>2026-04-25T08:52:54Z</time></trkpt><trkpt lat="59.0658129472" lon="29.9779131543"><ele>79.93</ele><time>2026-04-25T08:53:13Z</time></trkpt><trkpt lat="59.0658022184" lon="29.9778789561"><ele>79.93</ele><time>2026-04-25T08:53:41Z</time></trkpt><trkpt lat="59.0658182278" lon="29.9777200352"><ele>79.93</ele><time>2026-04-25T08:54:04Z</time></trkpt><trkpt lat="59.0658260230" lon="29.9776456878"><ele>79.93</ele><time>2026-04-25T08:54:25Z</time></trkpt><trkpt lat="59.0657914057" lon="29.9775544927"><ele>79.93</ele><time>2026-04-25T08:54:44Z</time></trkpt><trkpt lat="59.0657645836" lon="29.9773980863"><ele>80.41</ele><time>2026-04-25T08:55:01Z</time></trkpt><trkpt lat="59.0657804254" lon="29.9770829268"><ele>79.93</ele><time>2026-04-25T08:55:19Z</time></trkpt><trkpt lat="59.0657726303" lon="29.9769065715"><ele>79.93</ele><time>2026-04-25T08:55:34Z</time></trkpt><trkpt lat="59.0657288767" lon="29.9766042363"><ele>80.89</ele><time>2026-04-25T08:55:52Z</time></trkpt><trkpt lat="59.0656870510" lon="29.9763697106"><ele>80.41</ele><time>2026-04-25T08:56:07Z</time></trkpt><trkpt lat="59.0656929184" lon="29.9761494342"><ele>80.89</ele><time>2026-04-25T08:56:23Z</time></trkpt><trkpt lat="59.0657243505" lon="29.9760172516"><ele>80.89</ele><time>2026-04-25T08:56:42Z</time></trkpt><trkpt lat="59.0658023022" lon="29.9759165850"><ele>80.41</ele><time>2026-04-25T08:57:12Z</time></trkpt><trkpt lat="59.0657205787" lon="29.9759624340"><ele>78.97</ele><time>2026-04-25T08:57:26Z</time></trkpt><trkpt lat="59.0657027252" lon="29.9759847298"><ele>79.93</ele><time>2026-04-25T08:57:45Z</time></trkpt><trkpt lat="59.0657038148" lon="29.9759893399"><ele>79.93</ele><time>2026-04-25T08:58:02Z</time></trkpt><trkpt lat="59.0656973608" lon="29.9760304112"><ele>79.93</ele><time>2026-04-25T08:58:25Z</time></trkpt><trkpt lat="59.0656826086" lon="29.9759021681"><ele>80.89</ele><time>2026-04-25T08:58:39Z</time></trkpt><trkpt lat="59.0656270366" lon="29.9754751101"><ele>80.41</ele><time>2026-04-25T08:59:03Z</time></trkpt><trkpt lat="59.0656169783" lon="29.9752885289"><ele>80.41</ele><time>2026-04-25T08:59:21Z</time></trkpt><trkpt lat="59.0655774157" lon="29.9749249220"><ele>80.89</ele><time>2026-04-25T08:59:37Z</time></trkpt><trkpt lat="59.0655756555" lon="29.9747882970"><ele>80.41</ele><time>2026-04-25T08:59:51Z</time></trkpt><trkpt lat="59.0655578859" lon="29.9746174738"><ele>79.93</ele><time>2026-04-25T09:00:04Z</time></trkpt><trkpt lat="59.0655498393" lon="29.9746454693"><ele>80.41</ele><time>2026-04-25T09:00:07Z</time></trkpt><trkpt lat="59.0655351710" lon="29.9744394422"><ele>80.41</ele><time>2026-04-25T09:00:21Z</time></trkpt><trkpt lat="59.0655052476" lon="29.9742210098"><ele>80.41</ele><time>2026-04-25T09:00:36Z</time></trkpt><trkpt lat="59.0654904954" lon="29.9741593190"><ele>80.41</ele><time>2026-04-25T09:00:50Z</time></trkpt><trkpt lat="59.0655166470" lon="29.9740739074"><ele>80.41</ele><time>2026-04-25T09:01:15Z</time></trkpt><trkpt lat="59.0655174851" lon="29.9740450736"><ele>78.48</ele><time>2026-04-25T09:01:19Z</time></trkpt><trkpt lat="59.0655061696" lon="29.9740225263"><ele>80.41</ele><time>2026-04-25T09:01:41Z</time></trkpt><trkpt lat="59.0654745698" lon="29.9740380328"><ele>80.41</ele><time>2026-04-25T09:02:05Z</time></trkpt><trkpt lat="59.0654433891" lon="29.9739741627"><ele>79.93</ele><time>2026-04-25T09:02:40Z</time></trkpt><trkpt lat="59.0655306447" lon="29.9740591552"><ele>79.93</ele><time>2026-04-25T09:03:14Z</time></trkpt><trkpt lat="59.0655094385" lon="29.9739660323"><ele>79.93</ele><time>2026-04-25T09:03:35Z</time></trkpt><trkpt lat="59.0654583927" lon="29.9737610947"><ele>80.41</ele><time>2026-04-25T09:03:50Z</time></trkpt><trkpt lat="59.0653988812" lon="29.9735763576"><ele>79.93</ele><time>2026-04-25T09:04:07Z</time></trkpt><trkpt lat="59.0654047485" lon="29.9734303448"><ele>79.93</ele><time>2026-04-25T09:04:21Z</time></trkpt><trkpt lat="59.0654031560" lon="29.9734088033"><ele>79.93</ele><time>2026-04-25T09:04:36Z</time></trkpt><trkpt lat="59.0654236078" lon="29.9732271675"><ele>80.41</ele><time>2026-04-25T09:04:53Z</time></trkpt><trkpt lat="59.0654215124" lon="29.9731482100"><ele>79.93</ele><time>2026-04-25T09:05:09Z</time></trkpt><trkpt lat="59.0654342528" lon="29.9731581006"><ele>79.93</ele><time>2026-04-25T09:05:37Z</time></trkpt><trkpt lat="59.0654659364" lon="29.9731496349"><ele>79.93</ele><time>2026-04-25T09:06:02Z</time></trkpt><trkpt lat="59.0654872265" lon="29.9731306080"><ele>80.41</ele><time>2026-04-25T09:06:26Z</time></trkpt><trkpt lat="59.0654925909" lon="29.9731568433"><ele>79.45</ele><time>2026-04-25T09:06:50Z</time></trkpt><trkpt lat="59.0654604044" lon="29.9731010199"><ele>79.45</ele><time>2026-04-25T09:07:12Z</time></trkpt><trkpt lat="59.0654678643" lon="29.9730838370"><ele>79.93</ele><time>2026-04-25T09:07:32Z</time></trkpt><trkpt lat="59.0654912498" lon="29.9728929810"><ele>79.93</ele><time>2026-04-25T09:07:50Z</time></trkpt><trkpt lat="59.0654867236" lon="29.9728788156"><ele>79.93</ele><time>2026-04-25T09:08:06Z</time></trkpt><trkpt lat="59.0654102806" lon="29.9726833496"><ele>80.41</ele><time>2026-04-25T09:08:21Z</time></trkpt><trkpt lat="59.0654027369" lon="29.9724924099"><ele>80.41</ele><time>2026-04-25T09:08:39Z</time></trkpt><trkpt lat="59.0653895773" lon="29.9722967763"><ele>79.93</ele><time>2026-04-25T09:08:53Z</time></trkpt><trkpt lat="59.0654055029" lon="29.9722276255"><ele>80.41</ele><time>2026-04-25T09:09:11Z</time></trkpt><trkpt lat="59.0653817821" lon="29.9722231831"><ele>79.93</ele><time>2026-04-25T09:09:46Z</time></trkpt><trkpt lat="59.0653538704" lon="29.9721735623"><ele>80.41</ele><time>2026-04-25T09:10:14Z</time></trkpt><trkpt lat="59.0653864760" lon="29.9720606580"><ele>80.41</ele><time>2026-04-25T09:10:32Z</time></trkpt><trkpt lat="59.0654295590" lon="29.9718676228"><ele>80.89</ele><time>2026-04-25T09:10:49Z</time></trkpt><trkpt lat="59.0653954446" lon="29.9717245437"><ele>80.41</ele><time>2026-04-25T09:11:02Z</time></trkpt><trkpt lat="59.0653509367" lon="29.9715817999"><ele>79.93</ele><time>2026-04-25T09:11:19Z</time></trkpt><trkpt lat="59.0653105360" lon="29.9714373797"><ele>80.41</ele><time>2026-04-25T09:11:33Z</time></trkpt><trkpt lat="59.0653005615" lon="29.9713106453"><ele>80.41</ele><time>2026-04-25T09:11:50Z</time></trkpt><trkpt lat="59.0652688779" lon="29.9711583462"><ele>79.93</ele><time>2026-04-25T09:12:04Z</time></trkpt><trkpt lat="59.0652584843" lon="29.9711368885"><ele>79.93</ele><time>2026-04-25T09:12:12Z</time></trkpt><trkpt lat="59.0652102046" lon="29.9708542507"><ele>80.41</ele><time>2026-04-25T09:12:30Z</time></trkpt><trkpt lat="59.0652099531" lon="29.9706934858"><ele>80.41</ele><time>2026-04-25T09:12:43Z</time></trkpt><trkpt lat="59.0652392898" lon="29.9706721120"><ele>79.93</ele><time>2026-04-25T09:13:03Z</time></trkpt><trkpt lat="59.0652212687" lon="29.9706567731"><ele>79.93</ele><time>2026-04-25T09:13:20Z</time></trkpt><trkpt lat="59.0652128030" lon="29.9705135264"><ele>79.93</ele><time>2026-04-25T09:13:33Z</time></trkpt><trkpt lat="59.0652136412" lon="29.9705321342"><ele>78.97</ele><time>2026-04-25T09:13:52Z</time></trkpt><trkpt lat="59.0651875734" lon="29.9703905638"><ele>79.93</ele><time>2026-04-25T09:14:15Z</time></trkpt><trkpt lat="59.0651905909" lon="29.9703128636"><ele>79.93</ele><time>2026-04-25T09:14:29Z</time></trkpt><trkpt lat="59.0651952010" lon="29.9702647515"><ele>79.93</ele><time>2026-04-25T09:14:58Z</time></trkpt><trkpt lat="59.0651787724" lon="29.9702149630"><ele>79.93</ele><time>2026-04-25T09:15:17Z</time></trkpt><trkpt lat="59.0651469212" lon="29.9700423796"><ele>79.93</ele><time>2026-04-25T09:15:33Z</time></trkpt><trkpt lat="59.0651563928" lon="29.9699579738"><ele>80.41</ele><time>2026-04-25T09:15:49Z</time></trkpt><trkpt lat="59.0651334263" lon="29.9697579816"><ele>80.41</ele><time>2026-04-25T09:16:06Z</time></trkpt><trkpt lat="59.0651388746" lon="29.9697367754"><ele>79.45</ele><time>2026-04-25T09:16:08Z</time></trkpt><trkpt lat="59.0651223622" lon="29.9695686344"><ele>79.45</ele><time>2026-04-25T09:16:24Z</time></trkpt><trkpt lat="59.0651009046" lon="29.9694104679"><ele>79.93</ele><time>2026-04-25T09:16:38Z</time></trkpt><trkpt lat="59.0651215240" lon="29.9693092145"><ele>79.93</ele><time>2026-04-25T09:16:51Z</time></trkpt><trkpt lat="59.0651161596" lon="29.9692605995"><ele>80.41</ele><time>2026-04-25T09:17:06Z</time></trkpt><trkpt lat="59.0651428979" lon="29.9691100605"><ele>79.93</ele><time>2026-04-25T09:17:22Z</time></trkpt><trkpt lat="59.0651164949" lon="29.9689245690"><ele>79.45</ele><time>2026-04-25T09:17:37Z</time></trkpt><trkpt lat="59.0650698915" lon="29.9687352218"><ele>79.93</ele><time>2026-04-25T09:17:53Z</time></trkpt><trkpt lat="59.0650323406" lon="29.9685269315"><ele>79.93</ele><time>2026-04-25T09:18:19Z</time></trkpt><trkpt lat="59.0649909340" lon="29.9683222454"><ele>79.93</ele><time>2026-04-25T09:18:34Z</time></trkpt><trkpt lat="59.0649715718" lon="29.9682867061"><ele>79.93</ele><time>2026-04-25T09:18:59Z</time></trkpt><trkpt lat="59.0649886709" lon="29.9682918191"><ele>80.41</ele><time>2026-04-25T09:19:32Z</time></trkpt><trkpt lat="59.0650272276" lon="29.9682905618"><ele>79.93</ele><time>2026-04-25T09:19:49Z</time></trkpt><trkpt lat="59.0651259664" lon="29.9682503287"><ele>79.45</ele><time>2026-04-25T09:20:05Z</time></trkpt><trkpt lat="59.0651325043" lon="29.9682276137"><ele>79.45</ele><time>2026-04-25T09:20:31Z</time></trkpt><trkpt lat="59.0651055146" lon="29.9680924974"><ele>79.93</ele><time>2026-04-25T09:20:48Z</time></trkpt><trkpt lat="59.0650895052" lon="29.9679315649"><ele>78.00</ele><time>2026-04-25T09:21:03Z</time></trkpt><trkpt lat="59.0650714003" lon="29.9678003881"><ele>80.41</ele><time>2026-04-25T09:21:11Z</time></trkpt><trkpt lat="59.0650396328" lon="29.9677355122"><ele>79.93</ele><time>2026-04-25T09:21:26Z</time></trkpt><trkpt lat="59.0650161635" lon="29.9676696304"><ele>79.45</ele><time>2026-04-25T09:21:42Z</time></trkpt><trkpt lat="59.0649957955" lon="29.9675180018"><ele>79.93</ele><time>2026-04-25T09:22:00Z</time></trkpt><trkpt lat="59.0649521258" lon="29.9672802072"><ele>79.93</ele><time>2026-04-25T09:22:20Z</time></trkpt><trkpt lat="59.0649434086" lon="29.9671247229"><ele>79.93</ele><time>2026-04-25T09:22:38Z</time></trkpt><trkpt lat="59.0649279021" lon="29.9668269139"><ele>79.45</ele><time>2026-04-25T09:22:56Z</time></trkpt><trkpt lat="59.0648994036" lon="29.9667943083"><ele>79.93</ele><time>2026-04-25T09:23:17Z</time></trkpt><trkpt lat="59.0648929495" lon="29.9668104015"><ele>79.93</ele><time>2026-04-25T09:23:46Z</time></trkpt><trkpt lat="59.0648426581" lon="29.9667850044"><ele>79.93</ele><time>2026-04-25T09:24:16Z</time></trkpt><trkpt lat="59.0647942107" lon="29.9668264110"><ele>80.41</ele><time>2026-04-25T09:24:39Z</time></trkpt><trkpt lat="59.0646768641" lon="29.9667982478"><ele>79.93</ele><time>2026-04-25T09:24:57Z</time></trkpt><trkpt lat="59.0646001697" lon="29.9667694978"><ele>80.41</ele><time>2026-04-25T09:25:14Z</time></trkpt><trkpt lat="59.0644707531" lon="29.9667650554"><ele>79.93</ele><time>2026-04-25T09:25:33Z</time></trkpt><trkpt lat="59.0643454436" lon="29.9668834079"><ele>80.41</ele><time>2026-04-25T09:25:52Z</time></trkpt><trkpt lat="59.0642048791" lon="29.9669215456"><ele>80.41</ele><time>2026-04-25T09:26:09Z</time></trkpt><trkpt lat="59.0641272627" lon="29.9668839946"><ele>80.41</ele><time>2026-04-25T09:26:31Z</time></trkpt><trkpt lat="59.0640124306" lon="29.9668937176"><ele>79.93</ele><time>2026-04-25T09:26:50Z</time></trkpt><trkpt lat="59.0639468003" lon="29.9667973258"><ele>79.93</ele><time>2026-04-25T09:27:09Z</time></trkpt><trkpt lat="59.0638732072" lon="29.9667568412"><ele>80.41</ele><time>2026-04-25T09:27:25Z</time></trkpt><trkpt lat="59.0637699421" lon="29.9667472020"><ele>80.41</ele><time>2026-04-25T09:27:40Z</time></trkpt><trkpt lat="59.0636771545" lon="29.9666464515"><ele>80.41</ele><time>2026-04-25T09:27:58Z</time></trkpt><trkpt lat="59.0637019649" lon="29.9666954018"><ele>80.41</ele><time>2026-04-25T09:28:12Z</time></trkpt><trkpt lat="59.0637587104" lon="29.9667647202"><ele>80.41</ele><time>2026-04-25T09:28:25Z</time></trkpt><trkpt lat="59.0637427848" lon="29.9667742755"><ele>80.41</ele><time>2026-04-25T09:28:46Z</time></trkpt><trkpt lat="59.0637303796" lon="29.9667557515"><ele>79.93</ele><time>2026-04-25T09:29:08Z</time></trkpt><trkpt lat="59.0637211595" lon="29.9667775445"><ele>80.41</ele><time>2026-04-25T09:29:33Z</time></trkpt><trkpt lat="59.0638369136" lon="29.9666958209"><ele>80.41</ele><time>2026-04-25T09:29:51Z</time></trkpt><trkpt lat="59.0639235824" lon="29.9664726947"><ele>79.93</ele><time>2026-04-25T09:30:10Z</time></trkpt><trkpt lat="59.0639611334" lon="29.9664560985"><ele>79.93</ele><time>2026-04-25T09:30:30Z</time></trkpt><trkpt lat="59.0639887098" lon="29.9664449506"><ele>80.41</ele><time>2026-04-25T09:31:03Z</time></trkpt><trkpt lat="59.0639590379" lon="29.9665746186"><ele>79.93</ele><time>2026-04-25T09:31:25Z</time></trkpt><trkpt lat="59.0639452916" lon="29.9667578470"><ele>79.93</ele><time>2026-04-25T09:31:47Z</time></trkpt><trkpt lat="59.0639727842" lon="29.9668668117"><ele>80.41</ele><time>2026-04-25T09:32:05Z</time></trkpt><trkpt lat="59.0639920626" lon="29.9669788778"><ele>80.41</ele><time>2026-04-25T09:32:23Z</time></trkpt><trkpt lat="59.0640032943" lon="29.9671641178"><ele>80.41</ele><time>2026-04-25T09:32:37Z</time></trkpt><trkpt lat="59.0640364029" lon="29.9672733340"><ele>80.41</ele><time>2026-04-25T09:32:57Z</time></trkpt><trkpt lat="59.0640445333" lon="29.9674770981"><ele>80.41</ele><time>2026-04-25T09:33:14Z</time></trkpt><trkpt lat="59.0640426055" lon="29.9676836282"><ele>80.41</ele><time>2026-04-25T09:33:32Z</time></trkpt><trkpt lat="59.0640569385" lon="29.9678215943"><ele>79.93</ele><time>2026-04-25T09:33:48Z</time></trkpt><trkpt lat="59.0640805755" lon="29.9680033978"><ele>80.41</ele><time>2026-04-25T09:34:07Z</time></trkpt><trkpt lat="59.0640875325" lon="29.9682039768"><ele>79.93</ele><time>2026-04-25T09:34:24Z</time></trkpt><trkpt lat="59.0640723612" lon="29.9682938308"><ele>80.41</ele><time>2026-04-25T09:34:39Z</time></trkpt><trkpt lat="59.0640918072" lon="29.9683279451"><ele>80.41</ele><time>2026-04-25T09:35:04Z</time></trkpt><trkpt lat="59.0641178750" lon="29.9683298729"><ele>80.41</ele><time>2026-04-25T09:35:34Z</time></trkpt><trkpt lat="59.0641063917" lon="29.9683533423"><ele>80.89</ele><time>2026-04-25T09:36:08Z</time></trkpt><trkpt lat="59.0641128458" lon="29.9684359878"><ele>80.41</ele><time>2026-04-25T09:36:29Z</time></trkpt><trkpt lat="59.0641195513" lon="29.9686411768"><ele>79.93</ele><time>2026-04-25T09:36:46Z</time></trkpt><trkpt lat="59.0641397517" lon="29.9687820766"><ele>79.93</ele><time>2026-04-25T09:37:05Z</time></trkpt><trkpt lat="59.0641890373" lon="29.9690007605"><ele>80.89</ele><time>2026-04-25T09:37:27Z</time></trkpt><trkpt lat="59.0642244089" lon="29.9692709930"><ele>80.41</ele><time>2026-04-25T09:37:48Z</time></trkpt><trkpt lat="59.0642332099" lon="29.9694724102"><ele>79.93</ele><time>2026-04-25T09:38:06Z</time></trkpt><trkpt lat="59.0642241575" lon="29.9697236996"><ele>80.41</ele><time>2026-04-25T09:38:23Z</time></trkpt><trkpt lat="59.0642761253" lon="29.9699526094"><ele>79.93</ele><time>2026-04-25T09:38:44Z</time></trkpt><trkpt lat="59.0642830823" lon="29.9701680243"><ele>79.93</ele><time>2026-04-25T09:38:59Z</time></trkpt><trkpt lat="59.0643126704" lon="29.9703921564"><ele>79.93</ele><time>2026-04-25T09:39:18Z</time></trkpt><trkpt lat="59.0643015224" lon="29.9705149513"><ele>79.93</ele><time>2026-04-25T09:39:35Z</time></trkpt><trkpt lat="59.0642843395" lon="29.9705690145"><ele>79.93</ele><time>2026-04-25T09:40:06Z</time></trkpt><trkpt lat="59.0642982535" lon="29.9705786537"><ele>80.41</ele><time>2026-04-25T09:40:38Z</time></trkpt><trkpt lat="59.0643513110" lon="29.9706970062"><ele>79.93</ele><time>2026-04-25T09:40:52Z</time></trkpt><trkpt lat="59.0643394925" lon="29.9708320387"><ele>80.41</ele><time>2026-04-25T09:41:12Z</time></trkpt><trkpt lat="59.0643522330" lon="29.9709161930"><ele>79.93</ele><time>2026-04-25T09:41:37Z</time></trkpt><trkpt lat="59.0643566754" lon="29.9709304422"><ele>79.93</ele><time>2026-04-25T09:41:59Z</time></trkpt><trkpt lat="59.0643691644" lon="29.9710912909"><ele>80.41</ele><time>2026-04-25T09:42:14Z</time></trkpt><trkpt lat="59.0643762890" lon="29.9712894391"><ele>79.93</ele><time>2026-04-25T09:42:29Z</time></trkpt><trkpt lat="59.0643741935" lon="29.9714985676"><ele>79.93</ele><time>2026-04-25T09:42:43Z</time></trkpt><trkpt lat="59.0644172765" lon="29.9716786109"><ele>79.93</ele><time>2026-04-25T09:42:58Z</time></trkpt><trkpt lat="59.0644441824" lon="29.9719635956"><ele>79.45</ele><time>2026-04-25T09:43:16Z</time></trkpt><trkpt lat="59.0644536540" lon="29.9721578881"><ele>79.93</ele><time>2026-04-25T09:43:32Z</time></trkpt><trkpt lat="59.0644685738" lon="29.9721635878"><ele>79.93</ele><time>2026-04-25T09:43:54Z</time></trkpt><trkpt lat="59.0644713398" lon="29.9721332453"><ele>79.93</ele><time>2026-04-25T09:44:27Z</time></trkpt><trkpt lat="59.0644566715" lon="29.9722964410"><ele>79.93</ele><time>2026-04-25T09:44:44Z</time></trkpt><trkpt lat="59.0644663107" lon="29.9724609777"><ele>79.45</ele><time>2026-04-25T09:45:00Z</time></trkpt><trkpt lat="59.0644655563" lon="29.9725524243"><ele>79.45</ele><time>2026-04-25T09:45:16Z</time></trkpt><trkpt lat="59.0644854214" lon="29.9727043044"><ele>79.93</ele><time>2026-04-25T09:45:31Z</time></trkpt><trkpt lat="59.0644878522" lon="29.9728349783"><ele>79.93</ele><time>2026-04-25T09:45:52Z</time></trkpt><trkpt lat="59.0644837450" lon="29.9729843438"><ele>79.93</ele><time>2026-04-25T09:46:08Z</time></trkpt><trkpt lat="59.0644757822" lon="29.9731832463"><ele>79.45</ele><time>2026-04-25T09:46:23Z</time></trkpt><trkpt lat="59.0644909535" lon="29.9733539857"><ele>79.93</ele><time>2026-04-25T09:46:36Z</time></trkpt><trkpt lat="59.0645138361" lon="29.9735402316"><ele>79.93</ele><time>2026-04-25T09:46:54Z</time></trkpt><trkpt lat="59.0645049512" lon="29.9738914333"><ele>80.89</ele><time>2026-04-25T09:47:18Z</time></trkpt><trkpt lat="59.0644865949" lon="29.9740504380"><ele>81.85</ele><time>2026-04-25T09:47:39Z</time></trkpt><trkpt lat="59.0644630417" lon="29.9740399607"><ele>81.85</ele><time>2026-04-25T09:47:59Z</time></trkpt><trkpt lat="59.0644521452" lon="29.9741120450"><ele>81.85</ele><time>2026-04-25T09:48:26Z</time></trkpt><trkpt lat="59.0644158516" lon="29.9743567128"><ele>80.89</ele><time>2026-04-25T09:48:50Z</time></trkpt><trkpt lat="59.0643842518" lon="29.9743557069"><ele>80.89</ele><time>2026-04-25T09:49:09Z</time></trkpt><trkpt lat="59.0643014386" lon="29.9744027294"><ele>80.41</ele><time>2026-04-25T09:49:28Z</time></trkpt><trkpt lat="59.0641803201" lon="29.9745590519"><ele>79.93</ele><time>2026-04-25T09:49:49Z</time></trkpt><trkpt lat="59.0641483013" lon="29.9745712895"><ele>79.45</ele><time>2026-04-25T09:50:09Z</time></trkpt><trkpt lat="59.0640604589" lon="29.9747150391"><ele>78.97</ele><time>2026-04-25T09:50:31Z</time></trkpt><trkpt lat="59.0639530029" lon="29.9748339783"><ele>79.45</ele><time>2026-04-25T09:50:50Z</time></trkpt><trkpt lat="59.0639069024" lon="29.9748936575"><ele>79.45</ele><time>2026-04-25T09:51:08Z</time></trkpt><trkpt lat="59.0638784040" lon="29.9750044663"><ele>79.45</ele><time>2026-04-25T09:51:25Z</time></trkpt><trkpt lat="59.0638910607" lon="29.9750470463"><ele>79.45</ele><time>2026-04-25T09:51:57Z</time></trkpt><trkpt lat="59.0638760570" lon="29.9750984274"><ele>79.45</ele><time>2026-04-25T09:52:20Z</time></trkpt><trkpt lat="59.0639014542" lon="29.9750517402"><ele>78.97</ele><time>2026-04-25T09:52:36Z</time></trkpt><trkpt lat="59.0638894681" lon="29.9752674904"><ele>79.45</ele><time>2026-04-25T09:52:58Z</time></trkpt><trkpt lat="59.0638929047" lon="29.9754307698"><ele>79.93</ele><time>2026-04-25T09:53:14Z</time></trkpt><trkpt lat="59.0638960060" lon="29.9755319394"><ele>79.45</ele><time>2026-04-25T09:53:31Z</time></trkpt><trkpt lat="59.0639119316" lon="29.9757082947"><ele>79.93</ele><time>2026-04-25T09:53:46Z</time></trkpt><trkpt lat="59.0638925694" lon="29.9758455902"><ele>79.45</ele><time>2026-04-25T09:54:02Z</time></trkpt><trkpt lat="59.0639184695" lon="29.9760112166"><ele>79.45</ele><time>2026-04-25T09:54:20Z</time></trkpt><trkpt lat="59.0639290307" lon="29.9760887492"><ele>79.45</ele><time>2026-04-25T09:54:35Z</time></trkpt><trkpt lat="59.0639089141" lon="29.9761548825"><ele>79.93</ele><time>2026-04-25T09:54:47Z</time></trkpt><trkpt lat="59.0638895519" lon="29.9763820320"><ele>78.97</ele><time>2026-04-25T09:55:05Z</time></trkpt><trkpt lat="59.0638890490" lon="29.9766085111"><ele>79.93</ele><time>2026-04-25T09:55:23Z</time></trkpt><trkpt lat="59.0638953354" lon="29.9768098444"><ele>79.93</ele><time>2026-04-25T09:55:39Z</time></trkpt><trkpt lat="59.0638882946" lon="29.9768406060"><ele>79.93</ele><time>2026-04-25T09:55:57Z</time></trkpt><trkpt lat="59.0638949163" lon="29.9768010434"><ele>79.93</ele><time>2026-04-25T09:56:26Z</time></trkpt><trkpt lat="59.0638619754" lon="29.9768758100"><ele>79.93</ele><time>2026-04-25T09:56:49Z</time></trkpt><trkpt lat="59.0639393404" lon="29.9767855369"><ele>79.93</ele><time>2026-04-25T09:57:15Z</time></trkpt><trkpt lat="59.0639296174" lon="29.9768995307"><ele>79.93</ele><time>2026-04-25T09:57:37Z</time></trkpt><trkpt lat="59.0639258455" lon="29.9771149457"><ele>79.93</ele><time>2026-04-25T09:57:52Z</time></trkpt><trkpt lat="59.0639517456" lon="29.9771469645"><ele>80.41</ele><time>2026-04-25T09:58:04Z</time></trkpt><trkpt lat="59.0639061481" lon="29.9773198832"><ele>79.93</ele><time>2026-04-25T09:58:20Z</time></trkpt><trkpt lat="59.0638784040" lon="29.9775497150"><ele>79.93</ele><time>2026-04-25T09:58:39Z</time></trkpt><trkpt lat="59.0638866182" lon="29.9778403994"><ele>79.93</ele><time>2026-04-25T09:59:01Z</time></trkpt><trkpt lat="59.0638764761" lon="29.9778802134"><ele>79.93</ele><time>2026-04-25T09:59:23Z</time></trkpt><trkpt lat="59.0638792422" lon="29.9778776150"><ele>78.97</ele><time>2026-04-25T09:59:46Z</time></trkpt><trkpt lat="59.0638870373" lon="29.9778614379"><ele>79.93</ele><time>2026-04-25T10:00:15Z</time></trkpt><trkpt lat="59.0638725366" lon="29.9779249728"><ele>79.93</ele><time>2026-04-25T10:00:54Z</time></trkpt><trkpt lat="59.0638440382" lon="29.9779353663"><ele>79.93</ele><time>2026-04-25T10:01:34Z</time></trkpt><trkpt lat="59.0638955869" lon="29.9780705664"><ele>79.93</ele><time>2026-04-25T10:02:04Z</time></trkpt><trkpt lat="59.0639180504" lon="29.9783598259"><ele>79.93</ele><time>2026-04-25T10:02:26Z</time></trkpt><trkpt lat="59.0639904700" lon="29.9784103688"><ele>80.41</ele><time>2026-04-25T10:02:47Z</time></trkpt><trkpt lat="59.0639632288" lon="29.9786523543"><ele>79.93</ele><time>2026-04-25T10:03:08Z</time></trkpt><trkpt lat="59.0639782324" lon="29.9788297154"><ele>79.45</ele><time>2026-04-25T10:03:26Z</time></trkpt><trkpt lat="59.0639772266" lon="29.9790292047"><ele>79.45</ele><time>2026-04-25T10:03:47Z</time></trkpt><trkpt lat="59.0640103351" lon="29.9792358186"><ele>79.93</ele><time>2026-04-25T10:04:09Z</time></trkpt><trkpt lat="59.0639708564" lon="29.9793107528"><ele>79.93</ele><time>2026-04-25T10:04:32Z</time></trkpt><trkpt lat="59.0640406776" lon="29.9796270020"><ele>79.45</ele><time>2026-04-25T10:04:53Z</time></trkpt><trkpt lat="59.0640333015" lon="29.9796958175"><ele>79.93</ele><time>2026-04-25T10:05:13Z</time></trkpt><trkpt lat="59.0640521608" lon="29.9798142537"><ele>78.97</ele><time>2026-04-25T10:05:31Z</time></trkpt><trkpt lat="59.0640452038" lon="29.9797751103"><ele>79.45</ele><time>2026-04-25T10:05:55Z</time></trkpt><trkpt lat="59.0640574414" lon="29.9796939734"><ele>79.93</ele><time>2026-04-25T10:06:18Z</time></trkpt><trkpt lat="59.0640080720" lon="29.9797164369"><ele>79.93</ele><time>2026-04-25T10:06:40Z</time></trkpt><trkpt lat="59.0639977623" lon="29.9797570053"><ele>79.93</ele><time>2026-04-25T10:06:57Z</time></trkpt><trkpt lat="59.0639450401" lon="29.9797238968"><ele>80.41</ele><time>2026-04-25T10:07:16Z</time></trkpt><trkpt lat="59.0638458822" lon="29.9795524869"><ele>79.93</ele><time>2026-04-25T10:07:36Z</time></trkpt><trkpt lat="59.0637835208" lon="29.9793148600"><ele>79.93</ele><time>2026-04-25T10:07:59Z</time></trkpt><trkpt lat="59.0637813415" lon="29.9791147001"><ele>79.93</ele><time>2026-04-25T10:08:21Z</time></trkpt><trkpt lat="59.0637460537" lon="29.9788495805"><ele>80.41</ele><time>2026-04-25T10:08:43Z</time></trkpt><trkpt lat="59.0638035536" lon="29.9787241034"><ele>80.41</ele><time>2026-04-25T10:09:01Z</time></trkpt><trkpt lat="59.0638048947" lon="29.9785702117"><ele>80.41</ele><time>2026-04-25T10:09:16Z</time></trkpt><trkpt lat="59.0637929924" lon="29.9784802739"><ele>79.93</ele><time>2026-04-25T10:09:31Z</time></trkpt><trkpt lat="59.0637806710" lon="29.9783567246"><ele>80.89</ele><time>2026-04-25T10:09:48Z</time></trkpt><trkpt lat="59.0638000332" lon="29.9781615101"><ele>80.41</ele><time>2026-04-25T10:10:08Z</time></trkpt><trkpt lat="59.0638082474" lon="29.9780936167"><ele>80.89</ele><time>2026-04-25T10:10:35Z</time></trkpt><trkpt lat="59.0638716146" lon="29.9781723227"><ele>80.89</ele><time>2026-04-25T10:11:05Z</time></trkpt><trkpt lat="59.0637674276" lon="29.9781227019"><ele>80.89</ele><time>2026-04-25T10:11:28Z</time></trkpt><trkpt lat="59.0637233388" lon="29.9780893419"><ele>80.89</ele><time>2026-04-25T10:12:02Z</time></trkpt><trkpt lat="59.0636966005" lon="29.9780896772"><ele>80.89</ele><time>2026-04-25T10:12:28Z</time></trkpt><trkpt lat="59.0636705328" lon="29.9781174213"><ele>81.37</ele><time>2026-04-25T10:12:59Z</time></trkpt><trkpt lat="59.0636570379" lon="29.9781081174"><ele>80.89</ele><time>2026-04-25T10:13:25Z</time></trkpt><trkpt lat="59.0636537690" lon="29.9780609272"><ele>80.89</ele><time>2026-04-25T10:13:49Z</time></trkpt><trkpt lat="59.0636442974" lon="29.9781225342"><ele>81.37</ele><time>2026-04-25T10:14:13Z</time></trkpt><trkpt lat="59.0636898950" lon="29.9780284055"><ele>81.37</ele><time>2026-04-25T10:14:34Z</time></trkpt><trkpt lat="59.0637131967" lon="29.9778753519"><ele>80.89</ele><time>2026-04-25T10:14:54Z</time></trkpt><trkpt lat="59.0636769030" lon="29.9778625276"><ele>81.85</ele><time>2026-04-25T10:15:20Z</time></trkpt><trkpt lat="59.0637330618" lon="29.9778324366"><ele>81.85</ele><time>2026-04-25T10:15:43Z</time></trkpt><trkpt lat="59.0637181420" lon="29.9776623677"><ele>81.85</ele><time>2026-04-25T10:16:02Z</time></trkpt><trkpt lat="59.0637326427" lon="29.9773861002"><ele>81.85</ele><time>2026-04-25T10:16:24Z</time></trkpt><trkpt lat="59.0637157951" lon="29.9770774785"><ele>81.37</ele><time>2026-04-25T10:16:45Z</time></trkpt><trkpt lat="59.0637155436" lon="29.9768447969"><ele>81.85</ele><time>2026-04-25T10:17:09Z</time></trkpt><trkpt lat="59.0637146216" lon="29.9766691122"><ele>82.33</ele><time>2026-04-25T10:17:33Z</time></trkpt><trkpt lat="59.0637052339" lon="29.9765440542"><ele>81.85</ele><time>2026-04-25T10:17:53Z</time></trkpt><trkpt lat="59.0636972710" lon="29.9765553698"><ele>81.85</ele><time>2026-04-25T10:18:24Z</time></trkpt><trkpt lat="59.0637384262" lon="29.9765444733"><ele>81.85</ele><time>2026-04-25T10:18:51Z</time></trkpt><trkpt lat="59.0636836924" lon="29.9763596524"><ele>82.33</ele><time>2026-04-25T10:19:07Z</time></trkpt><trkpt lat="59.0636069980" lon="29.9762393720"><ele>81.85</ele><time>2026-04-25T10:19:27Z</time></trkpt><trkpt lat="59.0636343230" lon="29.9761826266"><ele>81.85</ele><time>2026-04-25T10:19:48Z</time></trkpt><trkpt lat="59.0636689402" lon="29.9759663735"><ele>82.33</ele><time>2026-04-25T10:20:04Z</time></trkpt><trkpt lat="59.0636313055" lon="29.9757181015"><ele>82.33</ele><time>2026-04-25T10:20:22Z</time></trkpt><trkpt lat="59.0636186488" lon="29.9755974859"><ele>81.85</ele><time>2026-04-25T10:20:38Z</time></trkpt><trkpt lat="59.0636110213" lon="29.9754347093"><ele>81.85</ele><time>2026-04-25T10:20:54Z</time></trkpt><trkpt lat="59.0635862947" lon="29.9755492900"><ele>82.33</ele><time>2026-04-25T10:21:12Z</time></trkpt><trkpt lat="59.0636206605" lon="29.9756678939"><ele>82.33</ele><time>2026-04-25T10:21:32Z</time></trkpt><trkpt lat="59.0636740532" lon="29.9756863341"><ele>81.85</ele><time>2026-04-25T10:21:54Z</time></trkpt><trkpt lat="59.0637248475" lon="29.9756844901"><ele>81.85</ele><time>2026-04-25T10:22:14Z</time></trkpt><trkpt lat="59.0637136158" lon="29.9755687360"><ele>81.85</ele><time>2026-04-25T10:22:31Z</time></trkpt><trkpt lat="59.0636854526" lon="29.9754900299"><ele>81.37</ele><time>2026-04-25T10:22:50Z</time></trkpt><trkpt lat="59.0636870451" lon="29.9754965678"><ele>82.33</ele><time>2026-04-25T10:23:10Z</time></trkpt><trkpt lat="59.0636772383" lon="29.9752598628"><ele>81.85</ele><time>2026-04-25T10:23:27Z</time></trkpt><trkpt lat="59.0636468120" lon="29.9750375748"><ele>82.33</ele><time>2026-04-25T10:23:46Z</time></trkpt><trkpt lat="59.0636358317" lon="29.9748314638"><ele>81.85</ele><time>2026-04-25T10:24:05Z</time></trkpt><trkpt lat="59.0636147093" lon="29.9745752290"><ele>82.33</ele><time>2026-04-25T10:24:22Z</time></trkpt><trkpt lat="59.0636054054" lon="29.9743311480"><ele>81.85</ele><time>2026-04-25T10:24:39Z</time></trkpt><trkpt lat="59.0635835286" lon="29.9741556309"><ele>82.33</ele><time>2026-04-25T10:24:58Z</time></trkpt><trkpt lat="59.0635665972" lon="29.9740446545"><ele>81.85</ele><time>2026-04-25T10:25:14Z</time></trkpt><trkpt lat="59.0635860432" lon="29.9740408827"><ele>81.85</ele><time>2026-04-25T10:25:32Z</time></trkpt><trkpt lat="59.0636248514" lon="29.9740879051"><ele>82.81</ele><time>2026-04-25T10:25:49Z</time></trkpt><trkpt lat="59.0635986160" lon="29.9740092829"><ele>82.33</ele><time>2026-04-25T10:26:10Z</time></trkpt><trkpt lat="59.0635816008" lon="29.9739841372"><ele>81.85</ele><time>2026-04-25T10:26:41Z</time></trkpt><trkpt lat="59.0636167210" lon="29.9739466701"><ele>81.85</ele><time>2026-04-25T10:27:08Z</time></trkpt><trkpt lat="59.0636222530" lon="29.9739631824"><ele>81.85</ele><time>2026-04-25T10:27:28Z</time></trkpt><trkpt lat="59.0636318084" lon="29.9739446584"><ele>81.85</ele><time>2026-04-25T10:27:54Z</time></trkpt><trkpt lat="59.0636395197" lon="29.9739345163"><ele>81.37</ele><time>2026-04-25T10:28:23Z</time></trkpt><trkpt lat="59.0636265278" lon="29.9739016593"><ele>81.37</ele><time>2026-04-25T10:28:53Z</time></trkpt><trkpt lat="59.0636030585" lon="29.9738983065"><ele>81.37</ele><time>2026-04-25T10:29:22Z</time></trkpt><trkpt lat="59.0635945089" lon="29.9738548044"><ele>81.37</ele><time>2026-04-25T10:29:59Z</time></trkpt><trkpt lat="59.0636608936" lon="29.9739358574"><ele>81.37</ele><time>2026-04-25T10:30:28Z</time></trkpt><trkpt lat="59.0636319760" lon="29.9739348516"><ele>81.37</ele><time>2026-04-25T10:31:00Z</time></trkpt><trkpt lat="59.0636473149" lon="29.9740429781"><ele>81.37</ele><time>2026-04-25T10:31:28Z</time></trkpt><trkpt lat="59.0636499971" lon="29.9740264658"><ele>81.37</ele><time>2026-04-25T10:31:51Z</time></trkpt><trkpt lat="59.0636722092" lon="29.9741439801"><ele>81.37</ele><time>2026-04-25T10:32:09Z</time></trkpt><trkpt lat="59.0636278689" lon="29.9742557947"><ele>81.37</ele><time>2026-04-25T10:32:28Z</time></trkpt><trkpt lat="59.0636685211" lon="29.9741490930"><ele>80.89</ele><time>2026-04-25T10:32:50Z</time></trkpt><trkpt lat="59.0636393521" lon="29.9740041699"><ele>81.37</ele><time>2026-04-25T10:33:08Z</time></trkpt><trkpt lat="59.0636211634" lon="29.9738905951"><ele>80.89</ele><time>2026-04-25T10:33:36Z</time></trkpt><trkpt lat="59.0636253543" lon="29.9738851469"><ele>80.89</ele><time>2026-04-25T10:33:57Z</time></trkpt><trkpt lat="59.0635576285" lon="29.9739578180"><ele>80.89</ele><time>2026-04-25T10:34:17Z</time></trkpt><trkpt lat="59.0635812655" lon="29.9738028366"><ele>80.89</ele><time>2026-04-25T10:34:39Z</time></trkpt><trkpt lat="59.0635893960" lon="29.9736440834"><ele>81.37</ele><time>2026-04-25T10:35:00Z</time></trkpt><trkpt lat="59.0635307226" lon="29.9735191930"><ele>81.37</ele><time>2026-04-25T10:35:18Z</time></trkpt><trkpt lat="59.0635275375" lon="29.9734316021"><ele>81.37</ele><time>2026-04-25T10:35:38Z</time></trkpt><trkpt lat="59.0634869691" lon="29.9733747728"><ele>81.37</ele><time>2026-04-25T10:35:57Z</time></trkpt><trkpt lat="59.0634407848" lon="29.9733081367"><ele>81.37</ele><time>2026-04-25T10:36:18Z</time></trkpt><trkpt lat="59.0634829458" lon="29.9731884431"><ele>81.37</ele><time>2026-04-25T10:36:38Z</time></trkpt><trkpt lat="59.0634766594" lon="29.9731495511"><ele>81.37</ele><time>2026-04-25T10:37:05Z</time></trkpt><trkpt lat="59.0634795930" lon="29.9730195478"><ele>81.37</ele><time>2026-04-25T10:37:18Z</time></trkpt><trkpt lat="59.0634457301" lon="29.9728068989"><ele>81.37</ele><time>2026-04-25T10:37:36Z</time></trkpt><trkpt lat="59.0634266194" lon="29.9725448806"><ele>81.85</ele><time>2026-04-25T10:37:54Z</time></trkpt><trkpt lat="59.0634626616" lon="29.9724910688"><ele>81.37</ele><time>2026-04-25T10:38:15Z</time></trkpt><trkpt lat="59.0634619910" lon="29.9725083355"><ele>80.89</ele><time>2026-04-25T10:38:44Z</time></trkpt><trkpt lat="59.0634697024" lon="29.9724761490"><ele>81.85</ele><time>2026-04-25T10:39:09Z</time></trkpt><trkpt lat="59.0634448081" lon="29.9723873008"><ele>81.37</ele><time>2026-04-25T10:39:29Z</time></trkpt><trkpt lat="59.0634452272" lon="29.9724143744"><ele>81.85</ele><time>2026-04-25T10:39:53Z</time></trkpt><trkpt lat="59.0633903258" lon="29.9722635001"><ele>81.85</ele><time>2026-04-25T10:40:10Z</time></trkpt><trkpt lat="59.0633988753" lon="29.9721267913"><ele>81.85</ele><time>2026-04-25T10:40:27Z</time></trkpt><trkpt lat="59.0633762442" lon="29.9719320796"><ele>81.85</ele><time>2026-04-25T10:40:44Z</time></trkpt><trkpt lat="59.0633614920" lon="29.9717024993"><ele>82.33</ele><time>2026-04-25T10:41:01Z</time></trkpt><trkpt lat="59.0633582231" lon="29.9716183450"><ele>81.85</ele><time>2026-04-25T10:41:16Z</time></trkpt><trkpt lat="59.0633498412" lon="29.9715237133"><ele>82.33</ele><time>2026-04-25T10:41:36Z</time></trkpt><trkpt lat="59.0633121226" lon="29.9713447597"><ele>82.33</ele><time>2026-04-25T10:41:53Z</time></trkpt><trkpt lat="59.0632806066" lon="29.9712297600"><ele>82.33</ele><time>2026-04-25T10:42:13Z</time></trkpt><trkpt lat="59.0632998850" lon="29.9712269939"><ele>81.85</ele><time>2026-04-25T10:42:40Z</time></trkpt><trkpt lat="59.0632963646" lon="29.9711708352"><ele>81.85</ele><time>2026-04-25T10:43:03Z</time></trkpt><trkpt lat="59.0632915031" lon="29.9709873553"><ele>82.81</ele><time>2026-04-25T10:43:25Z</time></trkpt><trkpt lat="59.0632791817" lon="29.9707732815"><ele>82.81</ele><time>2026-04-25T10:43:45Z</time></trkpt><trkpt lat="59.0632474143" lon="29.9705650751"><ele>82.81</ele><time>2026-04-25T10:44:09Z</time></trkpt><trkpt lat="59.0632302314" lon="29.9703758955"><ele>82.33</ele><time>2026-04-25T10:44:31Z</time></trkpt><trkpt lat="59.0632381104" lon="29.9702396058"><ele>82.81</ele><time>2026-04-25T10:44:51Z</time></trkpt><trkpt lat="59.0632097796" lon="29.9699958600"><ele>82.33</ele><time>2026-04-25T10:45:09Z</time></trkpt><trkpt lat="59.0632087737" lon="29.9698210973"><ele>82.81</ele><time>2026-04-25T10:45:30Z</time></trkpt><trkpt lat="59.0632013977" lon="29.9697874859"><ele>82.81</ele><time>2026-04-25T10:45:49Z</time></trkpt><trkpt lat="59.0631915908" lon="29.9697801098"><ele>82.33</ele><time>2026-04-25T10:46:18Z</time></trkpt><trkpt lat="59.0631996375" lon="29.9698124640"><ele>83.29</ele><time>2026-04-25T10:46:41Z</time></trkpt><trkpt lat="59.0631860588" lon="29.9698231090"><ele>82.33</ele><time>2026-04-25T10:47:02Z</time></trkpt><trkpt lat="59.0631689597" lon="29.9697991367"><ele>82.33</ele><time>2026-04-25T10:47:26Z</time></trkpt><trkpt lat="59.0631960332" lon="29.9697727337"><ele>82.33</ele><time>2026-04-25T10:47:50Z</time></trkpt><trkpt lat="59.0631811135" lon="29.9697955325"><ele>82.33</ele><time>2026-04-25T10:48:17Z</time></trkpt><trkpt lat="59.0631492622" lon="29.9698847998"><ele>82.81</ele><time>2026-04-25T10:48:43Z</time></trkpt><trkpt lat="59.0631552972" lon="29.9698708858"><ele>82.33</ele><time>2026-04-25T10:49:09Z</time></trkpt><trkpt lat="59.0631429758" lon="29.9698823690"><ele>82.81</ele><time>2026-04-25T10:49:37Z</time></trkpt><trkpt lat="59.0631573927" lon="29.9698121287"><ele>82.81</ele><time>2026-04-25T10:50:02Z</time></trkpt><trkpt lat="59.0631775931" lon="29.9698237795"><ele>81.85</ele><time>2026-04-25T10:50:29Z</time></trkpt><trkpt lat="59.0631888248" lon="29.9698139727"><ele>82.81</ele><time>2026-04-25T10:50:48Z</time></trkpt><trkpt lat="59.0631770063" lon="29.9697601609"><ele>82.81</ele><time>2026-04-25T10:51:08Z</time></trkpt><trkpt lat="59.0631761681" lon="29.9697495997"><ele>82.81</ele><time>2026-04-25T10:51:24Z</time></trkpt><trkpt lat="59.0631417185" lon="29.9697659444"><ele>82.81</ele><time>2026-04-25T10:51:50Z</time></trkpt><trkpt lat="59.0631220210" lon="29.9698234443"><ele>82.81</ele><time>2026-04-25T10:52:12Z</time></trkpt><trkpt lat="59.0631742403" lon="29.9698233604"><ele>82.81</ele><time>2026-04-25T10:52:36Z</time></trkpt><trkpt lat="59.0631946921" lon="29.9697911739"><ele>82.81</ele><time>2026-04-25T10:53:00Z</time></trkpt><trkpt lat="59.0631071851" lon="29.9698423874"><ele>82.81</ele><time>2026-04-25T10:53:26Z</time></trkpt><trkpt lat="59.0631293971" lon="29.9698047526"><ele>82.81</ele><time>2026-04-25T10:53:53Z</time></trkpt><trkpt lat="59.0630597435" lon="29.9698634259"><ele>82.81</ele><time>2026-04-25T10:54:15Z</time></trkpt><trkpt lat="59.0631385334" lon="29.9698229413"><ele>82.81</ele><time>2026-04-25T10:54:33Z</time></trkpt><trkpt lat="59.0631504357" lon="29.9698243663"><ele>82.81</ele><time>2026-04-25T10:54:59Z</time></trkpt><trkpt lat="59.0631340910" lon="29.9698098656"><ele>82.33</ele><time>2026-04-25T10:55:28Z</time></trkpt><trkpt lat="59.0631402936" lon="29.9698880687"><ele>82.33</ele><time>2026-04-25T10:55:51Z</time></trkpt><trkpt lat="59.0631908365" lon="29.9697842170"><ele>81.85</ele><time>2026-04-25T10:56:16Z</time></trkpt><trkpt lat="59.0632084385" lon="29.9698020704"><ele>81.85</ele><time>2026-04-25T10:56:44Z</time></trkpt><trkpt lat="59.0632164851" lon="29.9697640166"><ele>81.85</ele><time>2026-04-25T10:57:13Z</time></trkpt><trkpt lat="59.0632111207" lon="29.9698222708"><ele>81.37</ele><time>2026-04-25T10:57:39Z</time></trkpt><trkpt lat="59.0631773416" lon="29.9698601570"><ele>81.85</ele><time>2026-04-25T10:58:04Z</time></trkpt><trkpt lat="59.0631594881" lon="29.9697734043"><ele>81.85</ele><time>2026-04-25T10:58:29Z</time></trkpt><trkpt lat="59.0631136391" lon="29.9698937684"><ele>81.85</ele><time>2026-04-25T10:58:51Z</time></trkpt><trkpt lat="59.0631024912" lon="29.9698940199"><ele>81.37</ele><time>2026-04-25T10:59:18Z</time></trkpt><trkpt lat="59.0631826222" lon="29.9697547127"><ele>81.37</ele><time>2026-04-25T10:59:42Z</time></trkpt><trkpt lat="59.0631708875" lon="29.9696801137"><ele>80.89</ele><time>2026-04-25T11:00:06Z</time></trkpt><trkpt lat="59.0631698817" lon="29.9698060099"><ele>80.41</ele><time>2026-04-25T11:00:33Z</time></trkpt><trkpt lat="59.0632060077" lon="29.9697486777"><ele>80.89</ele><time>2026-04-25T11:01:00Z</time></trkpt><trkpt lat="59.0631820355" lon="29.9697861448"><ele>81.37</ele><time>2026-04-25T11:01:22Z</time></trkpt><trkpt lat="59.0631999727" lon="29.9697685428"><ele>81.85</ele><time>2026-04-25T11:01:42Z</time></trkpt><trkpt lat="59.0632078517" lon="29.9697392061"><ele>80.41</ele><time>2026-04-25T11:02:06Z</time></trkpt><trkpt lat="59.0631977934" lon="29.9697546288"><ele>81.37</ele><time>2026-04-25T11:02:20Z</time></trkpt><trkpt lat="59.0632031579" lon="29.9697832949"><ele>80.89</ele><time>2026-04-25T11:02:49Z</time></trkpt><trkpt lat="59.0631972905" lon="29.9697591551"><ele>81.37</ele><time>2026-04-25T11:03:10Z</time></trkpt><trkpt lat="59.0632156469" lon="29.9697414692"><ele>80.89</ele><time>2026-04-25T11:03:28Z</time></trkpt><trkpt lat="59.0632125456" lon="29.9697722308"><ele>81.85</ele><time>2026-04-25T11:03:43Z</time></trkpt><trkpt lat="59.0632086061" lon="29.9697612505"><ele>81.85</ele><time>2026-04-25T11:04:12Z</time></trkpt><trkpt lat="59.0631722286" lon="29.9695543014"><ele>81.85</ele><time>2026-04-25T11:04:28Z</time></trkpt><trkpt lat="59.0631507710" lon="29.9693174288"><ele>81.37</ele><time>2026-04-25T11:04:47Z</time></trkpt><trkpt lat="59.0631553810" lon="29.9691799656"><ele>81.85</ele><time>2026-04-25T11:05:02Z</time></trkpt><trkpt lat="59.0631218534" lon="29.9690306839"><ele>81.37</ele><time>2026-04-25T11:05:17Z</time></trkpt><trkpt lat="59.0631261282" lon="29.9688849226"><ele>81.85</ele><time>2026-04-25T11:05:29Z</time></trkpt><trkpt lat="59.0630984679" lon="29.9687216431"><ele>81.85</ele><time>2026-04-25T11:05:44Z</time></trkpt><trkpt lat="59.0630947798" lon="29.9684968404"><ele>82.33</ele><time>2026-04-25T11:05:59Z</time></trkpt><trkpt lat="59.0630718973" lon="29.9683059845"><ele>82.33</ele><time>2026-04-25T11:06:17Z</time></trkpt><trkpt lat="59.0630872361" lon="29.9681740534"><ele>82.33</ele><time>2026-04-25T11:06:36Z</time></trkpt><trkpt lat="59.0630748309" lon="29.9681543559"><ele>82.33</ele><time>2026-04-25T11:07:08Z</time></trkpt><trkpt lat="59.0630839672" lon="29.9681442138"><ele>82.33</ele><time>2026-04-25T11:07:38Z</time></trkpt><trkpt lat="59.0630765073" lon="29.9680723809"><ele>82.33</ele><time>2026-04-25T11:07:59Z</time></trkpt><trkpt lat="59.0630542114" lon="29.9680733867"><ele>81.85</ele><time>2026-04-25T11:08:28Z</time></trkpt><trkpt lat="59.0629977174" lon="29.9680113606"><ele>82.33</ele><time>2026-04-25T11:08:49Z</time></trkpt><trkpt lat="59.0629877429" lon="29.9678430520"><ele>82.33</ele><time>2026-04-25T11:09:03Z</time></trkpt><trkpt lat="59.0629815403" lon="29.9677505996"><ele>81.85</ele><time>2026-04-25T11:09:14Z</time></trkpt><trkpt lat="59.0629605856" lon="29.9676148966"><ele>82.33</ele><time>2026-04-25T11:09:29Z</time></trkpt><trkpt lat="59.0629677102" lon="29.9674956221"><ele>82.33</ele><time>2026-04-25T11:09:42Z</time></trkpt><trkpt lat="59.0629285667" lon="29.9673315044"><ele>82.33</ele><time>2026-04-25T11:09:57Z</time></trkpt><trkpt lat="59.0629155748" lon="29.9671887606"><ele>82.33</ele><time>2026-04-25T11:10:10Z</time></trkpt><trkpt lat="59.0629098751" lon="29.9671444204"><ele>82.33</ele><time>2026-04-25T11:10:15Z</time></trkpt><trkpt lat="59.0629334282" lon="29.9670180213"><ele>81.85</ele><time>2026-04-25T11:10:27Z</time></trkpt><trkpt lat="59.0629108809" lon="29.9668891914"><ele>82.33</ele><time>2026-04-25T11:10:41Z</time></trkpt><trkpt lat="59.0628940333" lon="29.9668234773"><ele>82.33</ele><time>2026-04-25T11:10:57Z</time></trkpt><trkpt lat="59.0628957935" lon="29.9667166080"><ele>82.33</ele><time>2026-04-25T11:11:16Z</time></trkpt><trkpt lat="59.0628970508" lon="29.9666852597"><ele>82.33</ele><time>2026-04-25T11:11:44Z</time></trkpt><trkpt lat="59.0628838912" lon="29.9666531570"><ele>82.33</ele><time>2026-04-25T11:12:14Z</time></trkpt><trkpt lat="59.0628849808" lon="29.9666438531"><ele>82.33</ele><time>2026-04-25T11:12:52Z</time></trkpt><trkpt lat="59.0628927760" lon="29.9666335434"><ele>81.85</ele><time>2026-04-25T11:13:28Z</time></trkpt><trkpt lat="59.0628850646" lon="29.9666524865"><ele>82.33</ele><time>2026-04-25T11:14:00Z</time></trkpt><trkpt lat="59.0628764313" lon="29.9666434340"><ele>82.33</ele><time>2026-04-25T11:14:26Z</time></trkpt><trkpt lat="59.0628711507" lon="29.9665859342"><ele>82.33</ele><time>2026-04-25T11:14:47Z</time></trkpt><trkpt lat="59.0628131479" lon="29.9666552525"><ele>82.81</ele><time>2026-04-25T11:15:07Z</time></trkpt><trkpt lat="59.0627405606" lon="29.9666373152"><ele>82.33</ele><time>2026-04-25T11:15:22Z</time></trkpt><trkpt lat="59.0626598429" lon="29.9666369800"><ele>82.33</ele><time>2026-04-25T11:15:37Z</time></trkpt><trkpt lat="59.0626289137" lon="29.9666197132"><ele>82.33</ele><time>2026-04-25T11:15:51Z</time></trkpt><trkpt lat="59.0625449270" lon="29.9666336272"><ele>82.33</ele><time>2026-04-25T11:16:06Z</time></trkpt><trkpt lat="59.0624385606" lon="29.9666317832"><ele>82.33</ele><time>2026-04-25T11:16:22Z</time></trkpt><trkpt lat="59.0623608604" lon="29.9666679092"><ele>82.81</ele><time>2026-04-25T11:16:37Z</time></trkpt><trkpt lat="59.0623223037" lon="29.9666776322"><ele>82.81</ele><time>2026-04-25T11:16:50Z</time></trkpt><trkpt lat="59.0622889437" lon="29.9666609522"><ele>82.81</ele><time>2026-04-25T11:17:06Z</time></trkpt><trkpt lat="59.0622338746" lon="29.9667194579"><ele>82.81</ele><time>2026-04-25T11:17:21Z</time></trkpt><trkpt lat="59.0622273367" lon="29.9666886125"><ele>82.33</ele><time>2026-04-25T11:17:44Z</time></trkpt><trkpt lat="59.0622033644" lon="29.9666550849"><ele>82.33</ele><time>2026-04-25T11:18:00Z</time></trkpt><trkpt lat="59.0621452779" lon="29.9665892869"><ele>82.33</ele><time>2026-04-25T11:18:15Z</time></trkpt><trkpt lat="59.0621312801" lon="29.9665622972"><ele>82.33</ele><time>2026-04-25T11:18:35Z</time></trkpt><trkpt lat="59.0620702598" lon="29.9665208068"><ele>81.85</ele><time>2026-04-25T11:18:52Z</time></trkpt><trkpt lat="59.0620255843" lon="29.9663554318"><ele>82.33</ele><time>2026-04-25T11:19:06Z</time></trkpt><trkpt lat="59.0619600378" lon="29.9662894662"><ele>82.33</ele><time>2026-04-25T11:19:18Z</time></trkpt><trkpt lat="59.0618662443" lon="29.9661715329"><ele>81.85</ele><time>2026-04-25T11:19:34Z</time></trkpt><trkpt lat="59.0617769770" lon="29.9662297871"><ele>82.33</ele><time>2026-04-25T11:19:51Z</time></trkpt><trkpt lat="59.0617737081" lon="29.9662170466"><ele>82.33</ele><time>2026-04-25T11:20:07Z</time></trkpt><trkpt lat="59.0617656615" lon="29.9662488978"><ele>81.85</ele><time>2026-04-25T11:20:28Z</time></trkpt><trkpt lat="59.0618062299" lon="29.9662570283"><ele>81.85</ele><time>2026-04-25T11:20:53Z</time></trkpt><trkpt lat="59.0617820062" lon="29.9664188828"><ele>81.85</ele><time>2026-04-25T11:21:19Z</time></trkpt><trkpt lat="59.0618068166" lon="29.9664729461"><ele>81.85</ele><time>2026-04-25T11:21:34Z</time></trkpt><trkpt lat="59.0617999434" lon="29.9665518198"><ele>81.85</ele><time>2026-04-25T11:22:01Z</time></trkpt><trkpt lat="59.0618167073" lon="29.9665996805"><ele>81.85</ele><time>2026-04-25T11:22:24Z</time></trkpt><trkpt lat="59.0618339740" lon="29.9667788018"><ele>81.85</ele><time>2026-04-25T11:22:40Z</time></trkpt><trkpt lat="59.0618477203" lon="29.9669106491"><ele>81.85</ele><time>2026-04-25T11:22:56Z</time></trkpt><trkpt lat="59.0618596226" lon="29.9670891836"><ele>81.85</ele><time>2026-04-25T11:23:16Z</time></trkpt><trkpt lat="59.0618531685" lon="29.9672339391"><ele>81.85</ele><time>2026-04-25T11:23:33Z</time></trkpt><trkpt lat="59.0618565213" lon="29.9673857354"><ele>81.85</ele><time>2026-04-25T11:23:49Z</time></trkpt><trkpt lat="59.0618763026" lon="29.9676186685"><ele>81.85</ele><time>2026-04-25T11:24:08Z</time></trkpt><trkpt lat="59.0618499834" lon="29.9678475782"><ele>81.85</ele><time>2026-04-25T11:24:28Z</time></trkpt><trkpt lat="59.0618937369" lon="29.9679975305"><ele>81.37</ele><time>2026-04-25T11:24:50Z</time></trkpt><trkpt lat="59.0619035438" lon="29.9681932479"><ele>81.37</ele><time>2026-04-25T11:25:08Z</time></trkpt><trkpt lat="59.0618906356" lon="29.9681624025"><ele>81.37</ele><time>2026-04-25T11:25:29Z</time></trkpt><trkpt lat="59.0618751291" lon="29.9681336526"><ele>81.37</ele><time>2026-04-25T11:26:02Z</time></trkpt><trkpt lat="59.0619252529" lon="29.9682680145"><ele>80.89</ele><time>2026-04-25T11:26:26Z</time></trkpt><trkpt lat="59.0619633067" lon="29.9685224891"><ele>81.37</ele><time>2026-04-25T11:26:47Z</time></trkpt><trkpt lat="59.0619703475" lon="29.9686568510"><ele>81.37</ele><time>2026-04-25T11:27:04Z</time></trkpt><trkpt lat="59.0619918890" lon="29.9688762054"><ele>81.37</ele><time>2026-04-25T11:27:21Z</time></trkpt><trkpt lat="59.0620116703" lon="29.9690704141"><ele>80.89</ele><time>2026-04-25T11:27:39Z</time></trkpt><trkpt lat="59.0620214771" lon="29.9692628626"><ele>80.89</ele><time>2026-04-25T11:27:58Z</time></trkpt><trkpt lat="59.0620476287" lon="29.9693584163"><ele>80.89</ele><time>2026-04-25T11:28:15Z</time></trkpt><trkpt lat="59.0620544180" lon="29.9694564007"><ele>80.89</ele><time>2026-04-25T11:28:35Z</time></trkpt><trkpt lat="59.0620682482" lon="29.9696801975"><ele>81.37</ele><time>2026-04-25T11:28:52Z</time></trkpt><trkpt lat="59.0620963275" lon="29.9698650185"><ele>80.89</ele><time>2026-04-25T11:29:11Z</time></trkpt><trkpt lat="59.0621197131" lon="29.9700189102"><ele>81.37</ele><time>2026-04-25T11:29:29Z</time></trkpt><trkpt lat="59.0621099900" lon="29.9702013005"><ele>80.89</ele><time>2026-04-25T11:29:48Z</time></trkpt><trkpt lat="59.0620950703" lon="29.9702567887"><ele>81.37</ele><time>2026-04-25T11:30:26Z</time></trkpt><trkpt lat="59.0621203836" lon="29.9702911545"><ele>80.89</ele><time>2026-04-25T11:30:46Z</time></trkpt><trkpt lat="59.0621453617" lon="29.9704664201"><ele>80.89</ele><time>2026-04-25T11:31:09Z</time></trkpt><trkpt lat="59.0621722676" lon="29.9706824217"><ele>80.89</ele><time>2026-04-25T11:31:32Z</time></trkpt><trkpt lat="59.0621554200" lon="29.9708550051"><ele>80.89</ele><time>2026-04-25T11:31:56Z</time></trkpt><trkpt lat="59.0621795598" lon="29.9710082263"><ele>81.37</ele><time>2026-04-25T11:32:15Z</time></trkpt><trkpt lat="59.0622011852" lon="29.9711661413"><ele>80.89</ele><time>2026-04-25T11:32:35Z</time></trkpt><trkpt lat="59.0622078069" lon="29.9713733420"><ele>80.89</ele><time>2026-04-25T11:32:54Z</time></trkpt><trkpt lat="59.0622000955" lon="29.9715014175"><ele>80.89</ele><time>2026-04-25T11:33:11Z</time></trkpt><trkpt lat="59.0622073039" lon="29.9717330933"><ele>80.41</ele><time>2026-04-25T11:33:31Z</time></trkpt><trkpt lat="59.0622293483" lon="29.9718858954"><ele>80.41</ele><time>2026-04-25T11:33:50Z</time></trkpt><trkpt lat="59.0622136742" lon="29.9719699658"><ele>80.41</ele><time>2026-04-25T11:34:10Z</time></trkpt><trkpt lat="59.0622451063" lon="29.9719739053"><ele>79.93</ele><time>2026-04-25T11:34:32Z</time></trkpt><trkpt lat="59.0622422565" lon="29.9720137194"><ele>79.93</ele><time>2026-04-25T11:34:59Z</time></trkpt><trkpt lat="59.0622637980" lon="29.9720496777"><ele>80.41</ele><time>2026-04-25T11:35:25Z</time></trkpt><trkpt lat="59.0622725990" lon="29.9721863028"><ele>80.41</ele><time>2026-04-25T11:35:43Z</time></trkpt><trkpt lat="59.0622714255" lon="29.9723356683"><ele>80.41</ele><time>2026-04-25T11:36:01Z</time></trkpt><trkpt lat="59.0622907039" lon="29.9724826030"><ele>80.41</ele><time>2026-04-25T11:36:17Z</time></trkpt><trkpt lat="59.0623132512" lon="29.9726335611"><ele>80.41</ele><time>2026-04-25T11:36:37Z</time></trkpt><trkpt lat="59.0622910392" lon="29.9728060607"><ele>80.41</ele><time>2026-04-25T11:36:52Z</time></trkpt><trkpt lat="59.0623222198" lon="29.9729146902"><ele>80.41</ele><time>2026-04-25T11:37:06Z</time></trkpt><trkpt lat="59.0623323619" lon="29.9730322044"><ele>80.41</ele><time>2026-04-25T11:37:21Z</time></trkpt><trkpt lat="59.0623523947" lon="29.9730768800"><ele>79.93</ele><time>2026-04-25T11:37:42Z</time></trkpt><trkpt lat="59.0623382293" lon="29.9731392413"><ele>79.93</ele><time>2026-04-25T11:38:00Z</time></trkpt><trkpt lat="59.0623399895" lon="29.9731234834"><ele>79.93</ele><time>2026-04-25T11:38:32Z</time></trkpt><trkpt lat="59.0623965673" lon="29.9730297737"><ele>79.93</ele><time>2026-04-25T11:39:13Z</time></trkpt><trkpt lat="59.0623720083" lon="29.9731096532"><ele>79.93</ele><time>2026-04-25T11:39:43Z</time></trkpt><trkpt lat="59.0623721760" lon="29.9731370620"><ele>79.93</ele><time>2026-04-25T11:40:12Z</time></trkpt><trkpt lat="59.0623725113" lon="29.9731366429"><ele>80.41</ele><time>2026-04-25T11:40:27Z</time></trkpt><trkpt lat="59.0623727627" lon="29.9731910415"><ele>80.41</ele><time>2026-04-25T11:40:31Z</time></trkpt><trkpt lat="59.0623894427" lon="29.9733493757"><ele>80.89</ele><time>2026-04-25T11:40:45Z</time></trkpt><trkpt lat="59.0623959806" lon="29.9735022616"><ele>80.41</ele><time>2026-04-25T11:40:59Z</time></trkpt><trkpt lat="59.0624031890" lon="29.9736280739"><ele>80.89</ele><time>2026-04-25T11:41:16Z</time></trkpt><trkpt lat="59.0624249820" lon="29.9737289082"><ele>80.89</ele><time>2026-04-25T11:41:32Z</time></trkpt><trkpt lat="59.0624083020" lon="29.9738833029"><ele>80.41</ele><time>2026-04-25T11:41:46Z</time></trkpt><trkpt lat="59.0624228027" lon="29.9740469176"><ele>80.41</ele><time>2026-04-25T11:42:04Z</time></trkpt><trkpt lat="59.0624567494" lon="29.9742376897"><ele>80.41</ele><time>2026-04-25T11:42:20Z</time></trkpt><trkpt lat="59.0624553245" lon="29.9742496759"><ele>80.41</ele><time>2026-04-25T11:42:41Z</time></trkpt><trkpt lat="59.0624954738" lon="29.9742443953"><ele>78.97</ele><time>2026-04-25T11:43:12Z</time></trkpt><trkpt lat="59.0624863375" lon="29.9742654338"><ele>79.93</ele><time>2026-04-25T11:43:28Z</time></trkpt><trkpt lat="59.0625050291" lon="29.9743282143"><ele>79.93</ele><time>2026-04-25T11:43:58Z</time></trkpt><trkpt lat="59.0625004191" lon="29.9744964391"><ele>80.41</ele><time>2026-04-25T11:44:15Z</time></trkpt><trkpt lat="59.0624949709" lon="29.9746875465"><ele>80.41</ele><time>2026-04-25T11:44:35Z</time></trkpt><trkpt lat="59.0625227988" lon="29.9750756286"><ele>80.41</ele><time>2026-04-25T11:45:01Z</time></trkpt><trkpt lat="59.0625387244" lon="29.9753791373"><ele>79.93</ele><time>2026-04-25T11:45:21Z</time></trkpt><trkpt lat="59.0625998285" lon="29.9754313566"><ele>79.93</ele><time>2026-04-25T11:45:40Z</time></trkpt><trkpt lat="59.0625532251" lon="29.9756795447"><ele>80.41</ele><time>2026-04-25T11:45:57Z</time></trkpt><trkpt lat="59.0625880938" lon="29.9759463407"><ele>80.41</ele><time>2026-04-25T11:46:14Z</time></trkpt><trkpt lat="59.0626315121" lon="29.9762222730"><ele>80.41</ele><time>2026-04-25T11:46:32Z</time></trkpt><trkpt lat="59.0626464318" lon="29.9762029108"><ele>79.93</ele><time>2026-04-25T11:46:52Z</time></trkpt><trkpt lat="59.0626206994" lon="29.9762666132"><ele>80.41</ele><time>2026-04-25T11:47:18Z</time></trkpt><trkpt lat="59.0626626089" lon="29.9762842152"><ele>80.41</ele><time>2026-04-25T11:47:47Z</time></trkpt><trkpt lat="59.0626808815" lon="29.9764775019"><ele>80.41</ele><time>2026-04-25T11:48:09Z</time></trkpt><trkpt lat="59.0627031773" lon="29.9767235108"><ele>80.41</ele><time>2026-04-25T11:48:28Z</time></trkpt><trkpt lat="59.0627031773" lon="29.9769198149"><ele>80.41</ele><time>2026-04-25T11:48:45Z</time></trkpt><trkpt lat="59.0627337713" lon="29.9772250000"><ele>79.93</ele><time>2026-04-25T11:49:03Z</time></trkpt><trkpt lat="59.0627522953" lon="29.9774765410"><ele>79.93</ele><time>2026-04-25T11:49:21Z</time></trkpt><trkpt lat="59.0627343580" lon="29.9777828157"><ele>80.41</ele><time>2026-04-25T11:49:40Z</time></trkpt><trkpt lat="59.0627388004" lon="29.9779059459"><ele>79.93</ele><time>2026-04-25T11:49:57Z</time></trkpt><trkpt lat="59.0627170075" lon="29.9778416567"><ele>79.93</ele><time>2026-04-25T11:50:22Z</time></trkpt><trkpt lat="59.0626466833" lon="29.9778838176"><ele>79.93</ele><time>2026-04-25T11:50:48Z</time></trkpt><trkpt lat="59.0626939572" lon="29.9779504538"><ele>80.41</ele><time>2026-04-25T11:51:21Z</time></trkpt><trkpt lat="59.0627251379" lon="29.9779875018"><ele>79.93</ele><time>2026-04-25T11:51:47Z</time></trkpt><trkpt lat="59.0627724119" lon="29.9781458359"><ele>79.93</ele><time>2026-04-25T11:52:05Z</time></trkpt><trkpt lat="59.0627776925" lon="29.9783250410"><ele>79.93</ele><time>2026-04-25T11:52:26Z</time></trkpt><trkpt lat="59.0627890080" lon="29.9783868156"><ele>80.41</ele><time>2026-04-25T11:52:46Z</time></trkpt><trkpt lat="59.0627597552" lon="29.9784221873"><ele>79.93</ele><time>2026-04-25T11:53:05Z</time></trkpt><trkpt lat="59.0628273133" lon="29.9785588123"><ele>80.41</ele><time>2026-04-25T11:53:25Z</time></trkpt><trkpt lat="59.0627408959" lon="29.9788304698"><ele>80.41</ele><time>2026-04-25T11:53:41Z</time></trkpt><trkpt lat="59.0628019162" lon="29.9790038075"><ele>80.89</ele><time>2026-04-25T11:53:58Z</time></trkpt><trkpt lat="59.0628310014" lon="29.9790924881"><ele>80.41</ele><time>2026-04-25T11:54:15Z</time></trkpt><trkpt lat="59.0628229547" lon="29.9792693462"><ele>80.41</ele><time>2026-04-25T11:54:36Z</time></trkpt><trkpt lat="59.0629149042" lon="29.9794823304"><ele>80.89</ele><time>2026-04-25T11:54:50Z</time></trkpt><trkpt lat="59.0628797002" lon="29.9795114156"><ele>80.89</ele><time>2026-04-25T11:55:10Z</time></trkpt><trkpt lat="59.0628758445" lon="29.9795644730"><ele>80.89</ele><time>2026-04-25T11:55:40Z</time></trkpt><trkpt lat="59.0628074482" lon="29.9796475377"><ele>80.89</ele><time>2026-04-25T11:56:04Z</time></trkpt><trkpt lat="59.0628427360" lon="29.9795856792"><ele>81.37</ele><time>2026-04-25T11:56:39Z</time></trkpt><trkpt lat="59.0628627688" lon="29.9795052968"><ele>80.89</ele><time>2026-04-25T11:57:07Z</time></trkpt><trkpt lat="59.0628812928" lon="29.9795793090"><ele>81.37</ele><time>2026-04-25T11:57:29Z</time></trkpt><trkpt lat="59.0628970508" lon="29.9795363937"><ele>81.85</ele><time>2026-04-25T11:57:56Z</time></trkpt><trkpt lat="59.0628595836" lon="29.9795668200"><ele>81.85</ele><time>2026-04-25T11:58:22Z</time></trkpt><trkpt lat="59.0628499445" lon="29.9795727711"><ele>82.33</ele><time>2026-04-25T11:58:40Z</time></trkpt><trkpt lat="59.0627566539" lon="29.9793777242"><ele>82.33</ele><time>2026-04-25T11:59:00Z</time></trkpt><trkpt lat="59.0626470186" lon="29.9793576915"><ele>82.33</ele><time>2026-04-25T11:59:17Z</time></trkpt><trkpt lat="59.0625933744" lon="29.9791582022"><ele>82.33</ele><time>2026-04-25T11:59:36Z</time></trkpt><trkpt lat="59.0624745190" lon="29.9789747223"><ele>81.85</ele><time>2026-04-25T11:59:59Z</time></trkpt><trkpt lat="59.0624527261" lon="29.9789556954"><ele>81.85</ele><time>2026-04-25T12:00:20Z</time></trkpt><trkpt lat="59.0623927955" lon="29.9789575394"><ele>82.33</ele><time>2026-04-25T12:00:45Z</time></trkpt><trkpt lat="59.0623998363" lon="29.9789349921"><ele>82.33</ele><time>2026-04-25T12:01:12Z</time></trkpt><trkpt lat="59.0622463636" lon="29.9788992852"><ele>82.33</ele><time>2026-04-25T12:01:30Z</time></trkpt><trkpt lat="59.0620938968" lon="29.9788098503"><ele>82.81</ele><time>2026-04-25T12:01:49Z</time></trkpt><trkpt lat="59.0620064735" lon="29.9788486585"><ele>82.81</ele><time>2026-04-25T12:02:11Z</time></trkpt><trkpt lat="59.0618732851" lon="29.9788027257"><ele>82.81</ele><time>2026-04-25T12:02:30Z</time></trkpt><trkpt lat="59.0618338063" lon="29.9787701201"><ele>82.81</ele><time>2026-04-25T12:02:46Z</time></trkpt><trkpt lat="59.0618571918" lon="29.9788471498"><ele>82.81</ele><time>2026-04-25T12:03:16Z</time></trkpt><trkpt lat="59.0618446190" lon="29.9787304737"><ele>82.81</ele><time>2026-04-25T12:03:44Z</time></trkpt><trkpt lat="59.0616796631" lon="29.9787048250"><ele>82.33</ele><time>2026-04-25T12:04:03Z</time></trkpt><trkpt lat="59.0616111830" lon="29.9786849599"><ele>82.33</ele><time>2026-04-25T12:04:17Z</time></trkpt><trkpt lat="59.0616422798" lon="29.9786953535"><ele>82.81</ele><time>2026-04-25T12:04:39Z</time></trkpt><trkpt lat="59.0616324730" lon="29.9786629993"><ele>82.33</ele><time>2026-04-25T12:05:10Z</time></trkpt><trkpt lat="59.0616064891" lon="29.9785967823"><ele>82.81</ele><time>2026-04-25T12:05:30Z</time></trkpt><trkpt lat="59.0616306290" lon="29.9784865603"><ele>82.33</ele><time>2026-04-25T12:05:56Z</time></trkpt><trkpt lat="59.0615956765" lon="29.9782588240"><ele>82.81</ele><time>2026-04-25T12:06:10Z</time></trkpt><trkpt lat="59.0615539346" lon="29.9780629389"><ele>82.81</ele><time>2026-04-25T12:06:32Z</time></trkpt><trkpt lat="59.0615813434" lon="29.9779816344"><ele>82.81</ele><time>2026-04-25T12:06:55Z</time></trkpt><trkpt lat="59.0615445469" lon="29.9778993241"><ele>82.81</ele><time>2026-04-25T12:07:14Z</time></trkpt><trkpt lat="59.0615240112" lon="29.9777500425"><ele>82.81</ele><time>2026-04-25T12:07:29Z</time></trkpt><trkpt lat="59.0615046490" lon="29.9777481146"><ele>82.81</ele><time>2026-04-25T12:07:45Z</time></trkpt><trkpt lat="59.0615728777" lon="29.9776401557"><ele>82.81</ele><time>2026-04-25T12:08:03Z</time></trkpt><trkpt lat="59.0615645796" lon="29.9775337055"><ele>82.81</ele><time>2026-04-25T12:08:20Z</time></trkpt><trkpt lat="59.0615353268" lon="29.9773800652"><ele>82.81</ele><time>2026-04-25T12:08:44Z</time></trkpt><trkpt lat="59.0615514200" lon="29.9771867786"><ele>82.33</ele><time>2026-04-25T12:09:02Z</time></trkpt><trkpt lat="59.0615360811" lon="29.9768853653"><ele>82.33</ele><time>2026-04-25T12:09:22Z</time></trkpt><trkpt lat="59.0614899807" lon="29.9766553659"><ele>82.33</ele><time>2026-04-25T12:09:42Z</time></trkpt><trkpt lat="59.0615347400" lon="29.9766668491"><ele>82.33</ele><time>2026-04-25T12:10:17Z</time></trkpt><trkpt lat="59.0614622366" lon="29.9767230079"><ele>82.33</ele><time>2026-04-25T12:10:37Z</time></trkpt><trkpt lat="59.0614478197" lon="29.9765497539"><ele>81.85</ele><time>2026-04-25T12:10:55Z</time></trkpt><trkpt lat="59.0614317264" lon="29.9763210956"><ele>82.33</ele><time>2026-04-25T12:11:16Z</time></trkpt><trkpt lat="59.0614184830" lon="29.9760822952"><ele>83.29</ele><time>2026-04-25T12:11:34Z</time></trkpt><trkpt lat="59.0614083409" lon="29.9759000726"><ele>82.33</ele><time>2026-04-25T12:11:49Z</time></trkpt><trkpt lat="59.0613856260" lon="29.9757838156"><ele>82.81</ele><time>2026-04-25T12:12:11Z</time></trkpt><trkpt lat="59.0613669343" lon="29.9756124895"><ele>82.81</ele><time>2026-04-25T12:12:25Z</time></trkpt><trkpt lat="59.0613870509" lon="29.9754945561"><ele>82.81</ele><time>2026-04-25T12:12:38Z</time></trkpt><trkpt lat="59.0613249410" lon="29.9753001798"><ele>82.81</ele><time>2026-04-25T12:12:53Z</time></trkpt><trkpt lat="59.0613039024" lon="29.9751902092"><ele>82.81</ele><time>2026-04-25T12:13:07Z</time></trkpt><trkpt lat="59.0612887312" lon="29.9750174582"><ele>82.81</ele><time>2026-04-25T12:13:22Z</time></trkpt><trkpt lat="59.0612370986" lon="29.9749570247"><ele>82.81</ele><time>2026-04-25T12:13:47Z</time></trkpt><trkpt lat="59.0612401161" lon="29.9749426916"><ele>82.81</ele><time>2026-04-25T12:14:04Z</time></trkpt><trkpt lat="59.0612359252" lon="29.9748325534"><ele>83.29</ele><time>2026-04-25T12:14:28Z</time></trkpt><trkpt lat="59.0612298902" lon="29.9746675137"><ele>82.81</ele><time>2026-04-25T12:14:46Z</time></trkpt><trkpt lat="59.0612208378" lon="29.9745368399"><ele>82.81</ele><time>2026-04-25T12:14:59Z</time></trkpt><trkpt lat="59.0611781739" lon="29.9743499234"><ele>82.33</ele><time>2026-04-25T12:15:13Z</time></trkpt><trkpt lat="59.0611615777" lon="29.9742041621"><ele>82.81</ele><time>2026-04-25T12:15:27Z</time></trkpt><trkpt lat="59.0611529443" lon="29.9740402121"><ele>82.33</ele><time>2026-04-25T12:15:41Z</time></trkpt><trkpt lat="59.0611407906" lon="29.9739068560"><ele>82.33</ele><time>2026-04-25T12:15:56Z</time></trkpt><trkpt lat="59.0611415450" lon="29.9737312552"><ele>82.33</ele><time>2026-04-25T12:16:13Z</time></trkpt><trkpt lat="59.0611295588" lon="29.9735688977"><ele>82.81</ele><time>2026-04-25T12:16:25Z</time></trkpt><trkpt lat="59.0610852186" lon="29.9733757786"><ele>82.33</ele><time>2026-04-25T12:16:41Z</time></trkpt><trkpt lat="59.0610555466" lon="29.9731556699"><ele>82.81</ele><time>2026-04-25T12:16:57Z</time></trkpt><trkpt lat="59.0610281378" lon="29.9730936438"><ele>82.33</ele><time>2026-04-25T12:17:16Z</time></trkpt><trkpt lat="59.0610399563" lon="29.9730696715"><ele>82.33</ele><time>2026-04-25T12:17:40Z</time></trkpt><trkpt lat="59.0610169899" lon="29.9730099924"><ele>82.33</ele><time>2026-04-25T12:18:03Z</time></trkpt><trkpt lat="59.0610346757" lon="29.9730130099"><ele>82.81</ele><time>2026-04-25T12:18:19Z</time></trkpt><trkpt lat="59.0610506851" lon="29.9729937315"><ele>82.81</ele><time>2026-04-25T12:18:39Z</time></trkpt><trkpt lat="59.0610481706" lon="29.9729122594"><ele>82.81</ele><time>2026-04-25T12:18:59Z</time></trkpt><trkpt lat="59.0610398725" lon="29.9727712758"><ele>83.29</ele><time>2026-04-25T12:19:17Z</time></trkpt><trkpt lat="59.0610169899" lon="29.9726068228"><ele>83.29</ele><time>2026-04-25T12:19:37Z</time></trkpt><trkpt lat="59.0609777626" lon="29.9725133646"><ele>82.81</ele><time>2026-04-25T12:19:57Z</time></trkpt><trkpt lat="59.0609525330" lon="29.9723832775"><ele>82.81</ele><time>2026-04-25T12:20:15Z</time></trkpt><trkpt lat="59.0609224420" lon="29.9724394362"><ele>82.81</ele><time>2026-04-25T12:20:37Z</time></trkpt><trkpt lat="59.0608913451" lon="29.9724194873"><ele>82.81</ele><time>2026-04-25T12:21:04Z</time></trkpt><trkpt lat="59.0609290637" lon="29.9725176394"><ele>82.81</ele><time>2026-04-25T12:21:28Z</time></trkpt><trkpt lat="59.0609635133" lon="29.9724842794"><ele>82.81</ele><time>2026-04-25T12:21:50Z</time></trkpt><trkpt lat="59.0609930176" lon="29.9724697787"><ele>83.29</ele><time>2026-04-25T12:22:12Z</time></trkpt><trkpt lat="59.0608894173" lon="29.9724094290"><ele>83.29</ele><time>2026-04-25T12:22:35Z</time></trkpt><trkpt lat="59.0609024931" lon="29.9724542722"><ele>82.81</ele><time>2026-04-25T12:22:57Z</time></trkpt><trkpt lat="59.0609097853" lon="29.9724247679"><ele>82.81</ele><time>2026-04-25T12:23:20Z</time></trkpt><trkpt lat="59.0608785208" lon="29.9723059125"><ele>83.29</ele><time>2026-04-25T12:23:40Z</time></trkpt><trkpt lat="59.0608841367" lon="29.9721925054"><ele>83.29</ele><time>2026-04-25T12:23:59Z</time></trkpt><trkpt lat="59.0608144831" lon="29.9720085226"><ele>83.77</ele><time>2026-04-25T12:24:17Z</time></trkpt><trkpt lat="59.0608145669" lon="29.9718067702"><ele>83.29</ele><time>2026-04-25T12:24:34Z</time></trkpt><trkpt lat="59.0607579891" lon="29.9716538005"><ele>83.29</ele><time>2026-04-25T12:24:52Z</time></trkpt><trkpt lat="59.0607715677" lon="29.9714781996"><ele>83.29</ele><time>2026-04-25T12:25:13Z</time></trkpt><trkpt lat="59.0607575700" lon="29.9713057838"><ele>83.29</ele><time>2026-04-25T12:25:33Z</time></trkpt><trkpt lat="59.0607793629" lon="29.9713243078"><ele>83.29</ele><time>2026-04-25T12:25:59Z</time></trkpt><trkpt lat="59.0607624315" lon="29.9712098949"><ele>82.81</ele><time>2026-04-25T12:26:25Z</time></trkpt><trkpt lat="59.0607854817" lon="29.9712861702"><ele>83.29</ele><time>2026-04-25T12:27:02Z</time></trkpt><trkpt lat="59.0607479308" lon="29.9712461047"><ele>83.29</ele><time>2026-04-25T12:27:27Z</time></trkpt><trkpt lat="59.0607503615" lon="29.9712426681"><ele>83.29</ele><time>2026-04-25T12:27:55Z</time></trkpt><trkpt lat="59.0607346874" lon="29.9711894430"><ele>83.77</ele><time>2026-04-25T12:28:18Z</time></trkpt><trkpt lat="59.0607384592" lon="29.9710878544"><ele>83.29</ele><time>2026-04-25T12:28:37Z</time></trkpt><trkpt lat="59.0606957953" lon="29.9708952382"><ele>83.77</ele><time>2026-04-25T12:28:53Z</time></trkpt><trkpt lat="59.0606874134" lon="29.9707369879"><ele>83.77</ele><time>2026-04-25T12:29:08Z</time></trkpt><trkpt lat="59.0606609266" lon="29.9705998600"><ele>83.77</ele><time>2026-04-25T12:29:23Z</time></trkpt><trkpt lat="59.0606607590" lon="29.9703610595"><ele>83.29</ele><time>2026-04-25T12:29:42Z</time></trkpt><trkpt lat="59.0606154129" lon="29.9701810163"><ele>83.77</ele><time>2026-04-25T12:29:59Z</time></trkpt><trkpt lat="59.0606115572" lon="29.9699593987"><ele>83.29</ele><time>2026-04-25T12:30:16Z</time></trkpt><trkpt lat="59.0605566557" lon="29.9697392061"><ele>83.29</ele><time>2026-04-25T12:30:31Z</time></trkpt><trkpt lat="59.0605307557" lon="29.9695180915"><ele>83.29</ele><time>2026-04-25T12:30:48Z</time></trkpt><trkpt lat="59.0605393052" lon="29.9694446661"><ele>83.29</ele><time>2026-04-25T12:31:07Z</time></trkpt><trkpt lat="59.0605286602" lon="29.9695173372"><ele>83.29</ele><time>2026-04-25T12:31:34Z</time></trkpt><trkpt lat="59.0605210327" lon="29.9693807121"><ele>82.81</ele><time>2026-04-25T12:32:01Z</time></trkpt><trkpt lat="59.0604962222" lon="29.9692250602"><ele>82.81</ele><time>2026-04-25T12:32:23Z</time></trkpt><trkpt lat="59.0604683105" lon="29.9688844196"><ele>82.33</ele><time>2026-04-25T12:32:42Z</time></trkpt><trkpt lat="59.0604280774" lon="29.9686310347"><ele>83.29</ele><time>2026-04-25T12:32:58Z</time></trkpt><trkpt lat="59.0604036860" lon="29.9684819207"><ele>82.81</ele><time>2026-04-25T12:33:16Z</time></trkpt><trkpt lat="59.0603897721" lon="29.9682900589"><ele>82.81</ele><time>2026-04-25T12:33:33Z</time></trkpt><trkpt lat="59.0603596810" lon="29.9681081716"><ele>82.33</ele><time>2026-04-25T12:33:49Z</time></trkpt><trkpt lat="59.0603596810" lon="29.9679086823"><ele>82.33</ele><time>2026-04-25T12:34:09Z</time></trkpt><trkpt lat="59.0603137482" lon="29.9676868971"><ele>82.33</ele><time>2026-04-25T12:34:28Z</time></trkpt><trkpt lat="59.0603229683" lon="29.9675335083"><ele>82.33</ele><time>2026-04-25T12:34:48Z</time></trkpt><trkpt lat="59.0602909494" lon="29.9673390482"><ele>82.33</ele><time>2026-04-25T12:35:08Z</time></trkpt><trkpt lat="59.0602590144" lon="29.9671913590"><ele>82.33</ele><time>2026-04-25T12:35:26Z</time></trkpt><trkpt lat="59.0602637082" lon="29.9670427479"><ele>82.33</ele><time>2026-04-25T12:35:49Z</time></trkpt><trkpt lat="59.0602074657" lon="29.9668926280"><ele>81.85</ele><time>2026-04-25T12:36:06Z</time></trkpt><trkpt lat="59.0602249000" lon="29.9668913707"><ele>81.85</ele><time>2026-04-25T12:36:39Z</time></trkpt><trkpt lat="59.0602400713" lon="29.9668129161"><ele>82.33</ele><time>2026-04-25T12:37:05Z</time></trkpt><trkpt lat="59.0601885226" lon="29.9666427635"><ele>82.33</ele><time>2026-04-25T12:37:25Z</time></trkpt><trkpt lat="59.0601892769" lon="29.9664074834"><ele>81.85</ele><time>2026-04-25T12:37:46Z</time></trkpt><trkpt lat="59.0601706691" lon="29.9662548490"><ele>81.85</ele><time>2026-04-25T12:38:01Z</time></trkpt><trkpt lat="59.0601299331" lon="29.9660360813"><ele>82.33</ele><time>2026-04-25T12:38:20Z</time></trkpt><trkpt lat="59.0600938071" lon="29.9658634141"><ele>82.33</ele><time>2026-04-25T12:38:35Z</time></trkpt><trkpt lat="59.0600832459" lon="29.9657917488"><ele>81.85</ele><time>2026-04-25T12:38:51Z</time></trkpt><trkpt lat="59.0601038653" lon="29.9657728057"><ele>82.33</ele><time>2026-04-25T12:39:21Z</time></trkpt><trkpt lat="59.0600836650" lon="29.9658218399"><ele>82.33</ele><time>2026-04-25T12:39:49Z</time></trkpt><trkpt lat="59.0600900352" lon="29.9657920003"><ele>82.33</ele><time>2026-04-25T12:40:13Z</time></trkpt><trkpt lat="59.0600392409" lon="29.9657854624"><ele>82.81</ele><time>2026-04-25T12:40:36Z</time></trkpt><trkpt lat="59.0599678271" lon="29.9658147153"><ele>83.29</ele><time>2026-04-25T12:40:54Z</time></trkpt><trkpt lat="59.0599326231" lon="29.9658068363"><ele>82.81</ele><time>2026-04-25T12:41:14Z</time></trkpt><trkpt lat="59.0598053019" lon="29.9657781702"><ele>82.81</ele><time>2026-04-25T12:41:30Z</time></trkpt><trkpt lat="59.0596908052" lon="29.9657379370"><ele>82.81</ele><time>2026-04-25T12:41:50Z</time></trkpt><trkpt lat="59.0596307069" lon="29.9656789284"><ele>83.77</ele><time>2026-04-25T12:42:07Z</time></trkpt><trkpt lat="59.0595461335" lon="29.9656592309"><ele>82.33</ele><time>2026-04-25T12:42:19Z</time></trkpt><trkpt lat="59.0594865382" lon="29.9656842090"><ele>82.81</ele><time>2026-04-25T12:42:35Z</time></trkpt><trkpt lat="59.0594480652" lon="29.9655436445"><ele>83.29</ele><time>2026-04-25T12:42:53Z</time></trkpt><trkpt lat="59.0594017133" lon="29.9654722307"><ele>82.81</ele><time>2026-04-25T12:43:14Z</time></trkpt><trkpt lat="59.0593945887" lon="29.9655580614"><ele>82.81</ele><time>2026-04-25T12:43:36Z</time></trkpt><trkpt lat="59.0593739692" lon="29.9655863922"><ele>83.29</ele><time>2026-04-25T12:43:57Z</time></trkpt><trkpt lat="59.0593057405" lon="29.9656011444"><ele>82.81</ele><time>2026-04-25T12:44:13Z</time></trkpt><trkpt lat="59.0592204127" lon="29.9655792676"><ele>83.29</ele><time>2026-04-25T12:44:26Z</time></trkpt><trkpt lat="59.0590978693" lon="29.9655697960"><ele>82.81</ele><time>2026-04-25T12:44:40Z</time></trkpt><trkpt lat="59.0589894075" lon="29.9655459914"><ele>82.81</ele><time>2026-04-25T12:44:55Z</time></trkpt><trkpt lat="59.0589362662" lon="29.9655265454"><ele>82.81</ele><time>2026-04-25T12:45:10Z</time></trkpt><trkpt lat="59.0589270461" lon="29.9654758349"><ele>83.29</ele><time>2026-04-25T12:45:37Z</time></trkpt><trkpt lat="59.0589105338" lon="29.9656024855"><ele>83.29</ele><time>2026-04-25T12:45:59Z</time></trkpt><trkpt lat="59.0588826220" lon="29.9656047486"><ele>81.37</ele><time>2026-04-25T12:46:26Z</time></trkpt><trkpt lat="59.0589019842" lon="29.9656588119"><ele>83.29</ele><time>2026-04-25T12:46:37Z</time></trkpt><trkpt lat="59.0588857234" lon="29.9655315746"><ele>83.29</ele><time>2026-04-25T12:47:02Z</time></trkpt><trkpt lat="59.0588086937" lon="29.9655393697"><ele>82.81</ele><time>2026-04-25T12:47:21Z</time></trkpt><trkpt lat="59.0587007347" lon="29.9653927702"><ele>82.33</ele><time>2026-04-25T12:47:41Z</time></trkpt><trkpt lat="59.0586273931" lon="29.9653757550"><ele>83.29</ele><time>2026-04-25T12:47:55Z</time></trkpt><trkpt lat="59.0585802030" lon="29.9652892537"><ele>82.81</ele><time>2026-04-25T12:48:11Z</time></trkpt><trkpt lat="59.0585361980" lon="29.9652133975"><ele>83.29</ele><time>2026-04-25T12:48:27Z</time></trkpt><trkpt lat="59.0584564023" lon="29.9651463423"><ele>83.29</ele><time>2026-04-25T12:48:45Z</time></trkpt><trkpt lat="59.0583850723" lon="29.9651106354"><ele>83.29</ele><time>2026-04-25T12:49:05Z</time></trkpt><trkpt lat="59.0583977289" lon="29.9650930334"><ele>83.29</ele><time>2026-04-25T12:49:28Z</time></trkpt><trkpt lat="59.0583455097" lon="29.9650657084"><ele>83.77</ele><time>2026-04-25T12:49:48Z</time></trkpt><trkpt lat="59.0583589207" lon="29.9650360364"><ele>83.77</ele><time>2026-04-25T12:50:13Z</time></trkpt><trkpt lat="59.0583305899" lon="29.9650085438"><ele>82.81</ele><time>2026-04-25T12:50:35Z</time></trkpt><trkpt lat="59.0583166759" lon="29.9651224539"><ele>83.29</ele><time>2026-04-25T12:51:03Z</time></trkpt><trkpt lat="59.0584149119" lon="29.9650990684"><ele>83.77</ele><time>2026-04-25T12:51:26Z</time></trkpt><trkpt lat="59.0584073681" lon="29.9651183467"><ele>83.77</ele><time>2026-04-25T12:51:51Z</time></trkpt><trkpt lat="59.0582856629" lon="29.9651362840"><ele>83.77</ele><time>2026-04-25T12:52:14Z</time></trkpt><trkpt lat="59.0583372116" lon="29.9650621880"><ele>83.77</ele><time>2026-04-25T12:52:43Z</time></trkpt><trkpt lat="59.0583141614" lon="29.9650511239"><ele>83.77</ele><time>2026-04-25T12:53:02Z</time></trkpt><trkpt lat="59.0583010018" lon="29.9650127348"><ele>84.25</ele><time>2026-04-25T12:53:27Z</time></trkpt><trkpt lat="59.0582851600" lon="29.9650544766"><ele>83.77</ele><time>2026-04-25T12:53:54Z</time></trkpt><trkpt lat="59.0582186077" lon="29.9649979826"><ele>83.77</ele><time>2026-04-25T12:54:12Z</time></trkpt><trkpt lat="59.0582070407" lon="29.9648565799"><ele>83.77</ele><time>2026-04-25T12:54:31Z</time></trkpt><trkpt lat="59.0581055358" lon="29.9647821486"><ele>83.77</ele><time>2026-04-25T12:54:50Z</time></trkpt><trkpt lat="59.0580526460" lon="29.9647243973"><ele>83.77</ele><time>2026-04-25T12:55:05Z</time></trkpt><trkpt lat="59.0580295119" lon="29.9647276662"><ele>84.25</ele><time>2026-04-25T12:55:21Z</time></trkpt><trkpt lat="59.0580248181" lon="29.9647260737"><ele>83.77</ele><time>2026-04-25T12:55:46Z</time></trkpt><trkpt lat="59.0580104850" lon="29.9647193681"><ele>84.25</ele><time>2026-04-25T12:56:16Z</time></trkpt><trkpt lat="59.0579303540" lon="29.9647347908"><ele>84.73</ele><time>2026-04-25T12:56:32Z</time></trkpt><trkpt lat="59.0578144323" lon="29.9646345433"><ele>84.25</ele><time>2026-04-25T12:56:51Z</time></trkpt><trkpt lat="59.0577452816" lon="29.9645515624"><ele>83.77</ele><time>2026-04-25T12:57:09Z</time></trkpt><trkpt lat="59.0577648953" lon="29.9646545760"><ele>82.81</ele><time>2026-04-25T12:57:27Z</time></trkpt><trkpt lat="59.0577655658" lon="29.9646505527"><ele>83.29</ele><time>2026-04-25T12:57:49Z</time></trkpt><trkpt lat="59.0577661525" lon="29.9645795580"><ele>83.29</ele><time>2026-04-25T12:58:06Z</time></trkpt><trkpt lat="59.0577540826" lon="29.9645352177"><ele>83.77</ele><time>2026-04-25T12:58:22Z</time></trkpt><trkpt lat="59.0577382408" lon="29.9646150135"><ele>83.77</ele><time>2026-04-25T12:58:48Z</time></trkpt><trkpt lat="59.0576304495" lon="29.9646306038"><ele>84.25</ele><time>2026-04-25T12:59:24Z</time></trkpt><trkpt lat="59.0577334631" lon="29.9647205416"><ele>83.77</ele><time>2026-04-25T12:59:47Z</time></trkpt><trkpt lat="59.0577927232" lon="29.9647997506"><ele>83.77</ele><time>2026-04-25T13:00:03Z</time></trkpt><trkpt lat="59.0577900410" lon="29.9649093021"><ele>84.25</ele><time>2026-04-25T13:00:16Z</time></trkpt><trkpt lat="59.0577454492" lon="29.9648981541"><ele>83.77</ele><time>2026-04-25T13:00:32Z</time></trkpt><trkpt lat="59.0577298589" lon="29.9649086315"><ele>84.25</ele><time>2026-04-25T13:00:54Z</time></trkpt><trkpt lat="59.0577635542" lon="29.9649968091"><ele>84.25</ele><time>2026-04-25T13:01:19Z</time></trkpt><trkpt lat="59.0576633904" lon="29.9649539776"><ele>83.77</ele><time>2026-04-25T13:01:54Z</time></trkpt><trkpt lat="59.0575708542" lon="29.9649207853"><ele>83.29</ele><time>2026-04-25T13:02:09Z</time></trkpt><trkpt lat="59.0575444512" lon="29.9650254752"><ele>83.29</ele><time>2026-04-25T13:02:32Z</time></trkpt><trkpt lat="59.0574318822" lon="29.9649264850"><ele>84.25</ele><time>2026-04-25T13:02:48Z</time></trkpt><trkpt lat="59.0574198961" lon="29.9648936279"><ele>83.77</ele><time>2026-04-25T13:02:57Z</time></trkpt><trkpt lat="59.0573240910" lon="29.9648812227"><ele>83.77</ele><time>2026-04-25T13:03:11Z</time></trkpt><trkpt lat="59.0572250169" lon="29.9647554103"><ele>83.77</ele><time>2026-04-25T13:03:29Z</time></trkpt><trkpt lat="59.0571750607" lon="29.9646350462"><ele>82.81</ele><time>2026-04-25T13:03:49Z</time></trkpt><trkpt lat="59.0571941715" lon="29.9646690767"><ele>83.29</ele><time>2026-04-25T13:04:22Z</time></trkpt><trkpt lat="59.0571994521" lon="29.9645612016"><ele>83.77</ele><time>2026-04-25T13:04:50Z</time></trkpt><trkpt lat="59.0571719594" lon="29.9646526482"><ele>83.29</ele><time>2026-04-25T13:05:21Z</time></trkpt><trkpt lat="59.0571468137" lon="29.9646449368"><ele>83.29</ele><time>2026-04-25T13:05:41Z</time></trkpt><trkpt lat="59.0571714565" lon="29.9645962380"><ele>83.29</ele><time>2026-04-25T13:06:08Z</time></trkpt><trkpt lat="59.0571317263" lon="29.9645880237"><ele>83.29</ele><time>2026-04-25T13:06:30Z</time></trkpt><trkpt lat="59.0570106078" lon="29.9645745289"><ele>83.29</ele><time>2026-04-25T13:06:48Z</time></trkpt><trkpt lat="59.0569419600" lon="29.9645246565"><ele>83.29</ele><time>2026-04-25T13:07:05Z</time></trkpt><trkpt lat="59.0568793472" lon="29.9645213876"><ele>82.81</ele><time>2026-04-25T13:07:22Z</time></trkpt><trkpt lat="59.0567918401" lon="29.9644138478"><ele>82.81</ele><time>2026-04-25T13:07:39Z</time></trkpt><trkpt lat="59.0566710569" lon="29.9642017018"><ele>82.81</ele><time>2026-04-25T13:07:58Z</time></trkpt><trkpt lat="59.0566312429" lon="29.9642791506"><ele>82.81</ele><time>2026-04-25T13:08:20Z</time></trkpt><trkpt lat="59.0565877408" lon="29.9642250873"><ele>82.81</ele><time>2026-04-25T13:08:39Z</time></trkpt><trkpt lat="59.0564928576" lon="29.9641858600"><ele>82.81</ele><time>2026-04-25T13:08:57Z</time></trkpt><trkpt lat="59.0564037580" lon="29.9641431961"><ele>82.81</ele><time>2026-04-25T13:09:13Z</time></trkpt><trkpt lat="59.0563099645" lon="29.9641234986"><ele>82.81</ele><time>2026-04-25T13:09:27Z</time></trkpt><trkpt lat="59.0563083719" lon="29.9640464690"><ele>82.33</ele><time>2026-04-25T13:09:48Z</time></trkpt><trkpt lat="59.0563239623" lon="29.9640664179"><ele>82.33</ele><time>2026-04-25T13:10:16Z</time></trkpt><trkpt lat="59.0563033428" lon="29.9640555214"><ele>82.33</ele><time>2026-04-25T13:10:41Z</time></trkpt><trkpt lat="59.0562815499" lon="29.9640342314"><ele>81.85</ele><time>2026-04-25T13:11:03Z</time></trkpt><trkpt lat="59.0562047716" lon="29.9640346505"><ele>82.33</ele><time>2026-04-25T13:11:19Z</time></trkpt><trkpt lat="59.0561121516" lon="29.9639323913"><ele>82.33</ele><time>2026-04-25T13:11:39Z</time></trkpt><trkpt lat="59.0560419951" lon="29.9639288709"><ele>81.85</ele><time>2026-04-25T13:11:54Z</time></trkpt><trkpt lat="59.0559289232" lon="29.9638446327"><ele>81.85</ele><time>2026-04-25T13:12:13Z</time></trkpt><trkpt lat="59.0558230598" lon="29.9638608098"><ele>81.85</ele><time>2026-04-25T13:12:34Z</time></trkpt><trkpt lat="59.0557353850" lon="29.9637918267"><ele>82.33</ele><time>2026-04-25T13:12:52Z</time></trkpt><trkpt lat="59.0556463692" lon="29.9637763202"><ele>81.85</ele><time>2026-04-25T13:13:12Z</time></trkpt><trkpt lat="59.0556054655" lon="29.9637387693"><ele>82.33</ele><time>2026-04-25T13:13:33Z</time></trkpt><trkpt lat="59.0555610415" lon="29.9637132045"><ele>81.85</ele><time>2026-04-25T13:13:57Z</time></trkpt><trkpt lat="59.0556286834" lon="29.9638205767"><ele>82.33</ele><time>2026-04-25T13:14:24Z</time></trkpt><trkpt lat="59.0556021966" lon="29.9639258534"><ele>81.85</ele><time>2026-04-25T13:14:49Z</time></trkpt><trkpt lat="59.0556000173" lon="29.9640912283"><ele>82.33</ele><time>2026-04-25T13:15:09Z</time></trkpt><trkpt lat="59.0555741172" lon="29.9642340560"><ele>82.33</ele><time>2026-04-25T13:15:27Z</time></trkpt><trkpt lat="59.0555615444" lon="29.9644981697"><ele>82.33</ele><time>2026-04-25T13:15:46Z</time></trkpt><trkpt lat="59.0555308666" lon="29.9646883551"><ele>81.85</ele><time>2026-04-25T13:16:02Z</time></trkpt><trkpt lat="59.0555618796" lon="29.9647868425"><ele>81.85</ele><time>2026-04-25T13:16:26Z</time></trkpt><trkpt lat="59.0555505641" lon="29.9648945499"><ele>82.33</ele><time>2026-04-25T13:16:41Z</time></trkpt><trkpt lat="59.0555357281" lon="29.9650364555"><ele>81.85</ele><time>2026-04-25T13:16:56Z</time></trkpt><trkpt lat="59.0555196349" lon="29.9651263934"><ele>81.85</ele><time>2026-04-25T13:17:11Z</time></trkpt><trkpt lat="59.0554348100" lon="29.9650932848"><ele>81.37</ele><time>2026-04-25T13:17:25Z</time></trkpt><trkpt lat="59.0553461295" lon="29.9651161674"><ele>81.37</ele><time>2026-04-25T13:17:44Z</time></trkpt><trkpt lat="59.0554644819" lon="29.9650261458"><ele>81.85</ele><time>2026-04-25T13:18:03Z</time></trkpt><trkpt lat="59.0555390809" lon="29.9651489407"><ele>81.37</ele><time>2026-04-25T13:18:21Z</time></trkpt><trkpt lat="59.0555969998" lon="29.9653293192"><ele>81.37</ele><time>2026-04-25T13:18:37Z</time></trkpt><trkpt lat="59.0556303598" lon="29.9654516950"><ele>81.37</ele><time>2026-04-25T13:18:53Z</time></trkpt><trkpt lat="59.0556800645" lon="29.9654670339"><ele>80.89</ele><time>2026-04-25T13:19:10Z</time></trkpt><trkpt lat="59.0556479618" lon="29.9655019026"><ele>80.89</ele><time>2026-04-25T13:19:40Z</time></trkpt><trkpt lat="59.0556777176" lon="29.9654860608"><ele>80.89</ele><time>2026-04-25T13:20:08Z</time></trkpt><trkpt lat="59.0556640550" lon="29.9654357694"><ele>80.89</ele><time>2026-04-25T13:20:26Z</time></trkpt><trkpt lat="59.0556468721" lon="29.9655419681"><ele>80.89</ele><time>2026-04-25T13:20:45Z</time></trkpt><trkpt lat="59.0556276776" lon="29.9656875618"><ele>80.89</ele><time>2026-04-25T13:21:01Z</time></trkpt><trkpt lat="59.0556081478" lon="29.9658767413"><ele>81.37</ele><time>2026-04-25T13:21:17Z</time></trkpt><trkpt lat="59.0555878635" lon="29.9659705348"><ele>80.89</ele><time>2026-04-25T13:21:40Z</time></trkpt><trkpt lat="59.0555787273" lon="29.9661635701"><ele>80.89</ele><time>2026-04-25T13:21:58Z</time></trkpt><trkpt lat="59.0555673279" lon="29.9663315434"><ele>80.89</ele><time>2026-04-25T13:22:15Z</time></trkpt><trkpt lat="59.0555435233" lon="29.9664583616"><ele>80.41</ele><time>2026-04-25T13:22:39Z</time></trkpt><trkpt lat="59.0555129293" lon="29.9666705076"><ele>80.41</ele><time>2026-04-25T13:22:57Z</time></trkpt><trkpt lat="59.0555047151" lon="29.9668154307"><ele>80.41</ele><time>2026-04-25T13:23:12Z</time></trkpt><trkpt lat="59.0554932319" lon="29.9669869244"><ele>80.41</ele><time>2026-04-25T13:23:26Z</time></trkpt><trkpt lat="59.0554914717" lon="29.9669849128"><ele>80.89</ele><time>2026-04-25T13:23:42Z</time></trkpt><trkpt lat="59.0555309504" lon="29.9671458453"><ele>80.89</ele><time>2026-04-25T13:23:58Z</time></trkpt><trkpt lat="59.0555681661" lon="29.9672473501"><ele>80.41</ele><time>2026-04-25T13:24:15Z</time></trkpt><trkpt lat="59.0555705968" lon="29.9672522116"><ele>80.41</ele><time>2026-04-25T13:24:42Z</time></trkpt><trkpt lat="59.0555871092" lon="29.9671828933"><ele>80.41</ele><time>2026-04-25T13:25:03Z</time></trkpt><trkpt lat="59.0556044597" lon="29.9672459252"><ele>80.41</ele><time>2026-04-25T13:25:29Z</time></trkpt><trkpt lat="59.0555955749" lon="29.9673356116"><ele>80.89</ele><time>2026-04-25T13:25:51Z</time></trkpt><trkpt lat="59.0555439424" lon="29.9675703887"><ele>80.41</ele><time>2026-04-25T13:26:06Z</time></trkpt><trkpt lat="59.0555679984" lon="29.9676387012"><ele>80.41</ele><time>2026-04-25T13:26:22Z</time></trkpt><trkpt lat="59.0555897076" lon="29.9675934389"><ele>80.41</ele><time>2026-04-25T13:26:39Z</time></trkpt><trkpt lat="59.0555909649" lon="29.9676899984"><ele>80.89</ele><time>2026-04-25T13:27:08Z</time></trkpt><trkpt lat="59.0556530748" lon="29.9676012341"><ele>80.89</ele><time>2026-04-25T13:27:40Z</time></trkpt><trkpt lat="59.0556161106" lon="29.9676693790"><ele>80.89</ele><time>2026-04-25T13:28:12Z</time></trkpt><trkpt lat="59.0556944814" lon="29.9677819479"><ele>80.89</ele><time>2026-04-25T13:28:31Z</time></trkpt><trkpt lat="59.0557727683" lon="29.9678619951"><ele>80.89</ele><time>2026-04-25T13:28:50Z</time></trkpt><trkpt lat="59.0558580961" lon="29.9679607339"><ele>80.89</ele><time>2026-04-25T13:29:07Z</time></trkpt><trkpt lat="59.0559281688" lon="29.9680697825"><ele>80.89</ele><time>2026-04-25T13:29:27Z</time></trkpt><trkpt lat="59.0559992474" lon="29.9681673478"><ele>80.89</ele><time>2026-04-25T13:29:43Z</time></trkpt><trkpt lat="59.0560022648" lon="29.9681934156"><ele>80.89</ele><time>2026-04-25T13:30:07Z</time></trkpt><trkpt lat="59.0560781211" lon="29.9682839401"><ele>80.89</ele><time>2026-04-25T13:30:34Z</time></trkpt><trkpt lat="59.0561099723" lon="29.9683514144"><ele>80.89</ele><time>2026-04-25T13:30:54Z</time></trkpt><trkpt lat="59.0561313462" lon="29.9683488999"><ele>80.89</ele><time>2026-04-25T13:31:17Z</time></trkpt><trkpt lat="59.0561499540" lon="29.9683411885"><ele>80.89</ele><time>2026-04-25T13:31:37Z</time></trkpt><trkpt lat="59.0562180150" lon="29.9684210680"><ele>81.37</ele><time>2026-04-25T13:32:02Z</time></trkpt><trkpt lat="59.0562236309" lon="29.9684450403"><ele>81.37</ele><time>2026-04-25T13:32:23Z</time></trkpt><trkpt lat="59.0562890097" lon="29.9684263486"><ele>81.85</ele><time>2026-04-25T13:32:45Z</time></trkpt><trkpt lat="59.0563280694" lon="29.9684903864"><ele>81.37</ele><time>2026-04-25T13:33:05Z</time></trkpt><trkpt lat="59.0563063603" lon="29.9684558529"><ele>81.85</ele><time>2026-04-25T13:33:39Z</time></trkpt><trkpt lat="59.0562747605" lon="29.9684283603"><ele>81.37</ele><time>2026-04-25T13:34:09Z</time></trkpt><trkpt lat="59.0563112218" lon="29.9683578685"><ele>81.37</ele><time>2026-04-25T13:34:41Z</time></trkpt><trkpt lat="59.0563699789" lon="29.9684305396"><ele>81.37</ele><time>2026-04-25T13:35:05Z</time></trkpt><trkpt lat="59.0563361160" lon="29.9684354011"><ele>81.85</ele><time>2026-04-25T13:35:32Z</time></trkpt><trkpt lat="59.0563941188" lon="29.9684641510"><ele>81.85</ele><time>2026-04-25T13:35:54Z</time></trkpt><trkpt lat="59.0564358607" lon="29.9686308671"><ele>81.85</ele><time>2026-04-25T13:36:16Z</time></trkpt><trkpt lat="59.0564926900" lon="29.9687337968"><ele>81.85</ele><time>2026-04-25T13:36:40Z</time></trkpt><trkpt lat="59.0564807039" lon="29.9687715154"><ele>81.85</ele><time>2026-04-25T13:37:03Z</time></trkpt><trkpt lat="59.0565564763" lon="29.9688237347"><ele>82.33</ele><time>2026-04-25T13:37:29Z</time></trkpt><trkpt lat="59.0566169098" lon="29.9688462820"><ele>82.33</ele><time>2026-04-25T13:37:52Z</time></trkpt><trkpt lat="59.0566728171" lon="29.9688948132"><ele>82.33</ele><time>2026-04-25T13:38:18Z</time></trkpt><trkpt lat="59.0567595698" lon="29.9689881876"><ele>82.33</ele><time>2026-04-25T13:38:44Z</time></trkpt><trkpt lat="59.0568561293" lon="29.9690277502"><ele>82.33</ele><time>2026-04-25T13:39:03Z</time></trkpt><trkpt lat="59.0568231046" lon="29.9690077174"><ele>82.33</ele><time>2026-04-25T13:39:38Z</time></trkpt><trkpt lat="59.0568016469" lon="29.9690797180"><ele>82.33</ele><time>2026-04-25T13:40:03Z</time></trkpt><trkpt lat="59.0567574743" lon="29.9691292550"><ele>82.33</ele><time>2026-04-25T13:40:23Z</time></trkpt><trkpt lat="59.0566649381" lon="29.9692798778"><ele>82.33</ele><time>2026-04-25T13:40:43Z</time></trkpt><trkpt lat="59.0566243697" lon="29.9693698157"><ele>82.33</ele><time>2026-04-25T13:41:04Z</time></trkpt><trkpt lat="59.0565891657" lon="29.9695910979"><ele>82.33</ele><time>2026-04-25T13:41:20Z</time></trkpt><trkpt lat="59.0565579850" lon="29.9697188381"><ele>82.33</ele><time>2026-04-25T13:41:41Z</time></trkpt><trkpt lat="59.0564973839" lon="29.9699460715"><ele>82.33</ele><time>2026-04-25T13:42:07Z</time></trkpt><trkpt lat="59.0564579889" lon="29.9700602330"><ele>82.33</ele><time>2026-04-25T13:42:29Z</time></trkpt><trkpt lat="59.0564077813" lon="29.9703551922"><ele>81.85</ele><time>2026-04-25T13:42:52Z</time></trkpt><trkpt lat="59.0564853139" lon="29.9703754764"><ele>81.85</ele><time>2026-04-25T13:43:15Z</time></trkpt><trkpt lat="59.0565830469" lon="29.9704668391"><ele>81.85</ele><time>2026-04-25T13:43:35Z</time></trkpt><trkpt lat="59.0565848071" lon="29.9704818428"><ele>81.85</ele><time>2026-04-25T13:43:56Z</time></trkpt><trkpt lat="59.0566229448" lon="29.9704406876"><ele>82.33</ele><time>2026-04-25T13:44:26Z</time></trkpt><trkpt lat="59.0565341804" lon="29.9705157056"><ele>81.85</ele><time>2026-04-25T13:44:54Z</time></trkpt><trkpt lat="59.0564704780" lon="29.9705597106"><ele>81.85</ele><time>2026-04-25T13:45:21Z</time></trkpt><trkpt lat="59.0564629342" lon="29.9705025461"><ele>81.85</ele><time>2026-04-25T13:45:54Z</time></trkpt><trkpt lat="59.0564961266" lon="29.9704055674"><ele>81.85</ele><time>2026-04-25T13:46:21Z</time></trkpt><trkpt lat="59.0564329270" lon="29.9703071639"><ele>82.33</ele><time>2026-04-25T13:46:40Z</time></trkpt><trkpt lat="59.0563309193" lon="29.9701089319"><ele>82.33</ele><time>2026-04-25T13:47:04Z</time></trkpt><trkpt lat="59.0562229604" lon="29.9699575547"><ele>82.33</ele><time>2026-04-25T13:47:26Z</time></trkpt><trkpt lat="59.0561695676" lon="29.9699583091"><ele>82.81</ele><time>2026-04-25T13:47:47Z</time></trkpt><trkpt lat="59.0561742615" lon="29.9700257834"><ele>82.81</ele><time>2026-04-25T13:48:18Z</time></trkpt><trkpt lat="59.0561369620" lon="29.9702570401"><ele>82.81</ele><time>2026-04-25T13:48:37Z</time></trkpt><trkpt lat="59.0561461821" lon="29.9702049047"><ele>82.81</ele><time>2026-04-25T13:49:01Z</time></trkpt><trkpt lat="59.0560389776" lon="29.9700602330"><ele>82.81</ele><time>2026-04-25T13:49:17Z</time></trkpt><trkpt lat="59.0559163503" lon="29.9698571395"><ele>82.81</ele><time>2026-04-25T13:49:36Z</time></trkpt><trkpt lat="59.0558958985" lon="29.9698292278"><ele>82.81</ele><time>2026-04-25T13:50:00Z</time></trkpt><trkpt lat="59.0557665657" lon="29.9698030762"><ele>82.81</ele><time>2026-04-25T13:50:21Z</time></trkpt><trkpt lat="59.0557465330" lon="29.9697855581"><ele>82.81</ele><time>2026-04-25T13:50:42Z</time></trkpt><trkpt lat="59.0556743648" lon="29.9696188420"><ele>82.33</ele><time>2026-04-25T13:51:00Z</time></trkpt><trkpt lat="59.0555965807" lon="29.9695197679"><ele>83.29</ele><time>2026-04-25T13:51:18Z</time></trkpt><trkpt lat="59.0555822477" lon="29.9695704784"><ele>83.29</ele><time>2026-04-25T13:51:45Z</time></trkpt><trkpt lat="59.0556296054" lon="29.9696047604"><ele>83.29</ele><time>2026-04-25T13:52:11Z</time></trkpt><trkpt lat="59.0556881111" lon="29.9697032478"><ele>83.77</ele><time>2026-04-25T13:52:38Z</time></trkpt><trkpt lat="59.0556425136" lon="29.9698253721"><ele>83.77</ele><time>2026-04-25T13:53:05Z</time></trkpt><trkpt lat="59.0556320362" lon="29.9698006455"><ele>84.73</ele><time>2026-04-25T13:53:34Z</time></trkpt><trkpt lat="59.0556108300" lon="29.9698128831"><ele>84.73</ele><time>2026-04-25T13:53:59Z</time></trkpt><trkpt lat="59.0556455310" lon="29.9699422996"><ele>84.73</ele><time>2026-04-25T13:54:19Z</time></trkpt><trkpt lat="59.0556665696" lon="29.9699307326"><ele>85.21</ele><time>2026-04-25T13:54:44Z</time></trkpt><trkpt lat="59.0557069704" lon="29.9701382685"><ele>85.21</ele><time>2026-04-25T13:55:07Z</time></trkpt><trkpt lat="59.0557252429" lon="29.9703023862"><ele>85.21</ele><time>2026-04-25T13:55:31Z</time></trkpt><trkpt lat="59.0557289310" lon="29.9705815036"><ele>85.21</ele><time>2026-04-25T13:55:51Z</time></trkpt><trkpt lat="59.0556894522" lon="29.9707722757"><ele>85.21</ele><time>2026-04-25T13:56:11Z</time></trkpt><trkpt lat="59.0557639673" lon="29.9708284345"><ele>85.21</ele><time>2026-04-25T13:56:36Z</time></trkpt><trkpt lat="59.0557982493" lon="29.9709184561"><ele>85.21</ele><time>2026-04-25T13:56:57Z</time></trkpt><trkpt lat="59.0557189565" lon="29.9709710944"><ele>84.73</ele><time>2026-04-25T13:57:19Z</time></trkpt><trkpt lat="59.0557547472" lon="29.9710730184"><ele>84.73</ele><time>2026-04-25T13:57:33Z</time></trkpt><trkpt lat="59.0557492152" lon="29.9712060392"><ele>84.73</ele><time>2026-04-25T13:57:49Z</time></trkpt><trkpt lat="59.0557239018" lon="29.9712398183"><ele>84.73</ele><time>2026-04-25T13:58:08Z</time></trkpt><trkpt lat="59.0557052940" lon="29.9713921174"><ele>84.73</ele><time>2026-04-25T13:58:26Z</time></trkpt><trkpt lat="59.0556913801" lon="29.9715170916"><ele>84.73</ele><time>2026-04-25T13:58:39Z</time></trkpt><trkpt lat="59.0556862671" lon="29.9715823028"><ele>84.25</ele><time>2026-04-25T13:59:02Z</time></trkpt><trkpt lat="59.0556815732" lon="29.9715291616"><ele>84.73</ele><time>2026-04-25T13:59:25Z</time></trkpt><trkpt lat="59.0556884464" lon="29.9715957139"><ele>84.25</ele><time>2026-04-25T13:59:42Z</time></trkpt><trkpt lat="59.0557026118" lon="29.9715759326"><ele>84.25</ele><time>2026-04-25T14:00:03Z</time></trkpt><trkpt lat="59.0557367261" lon="29.9716373719"><ele>83.77</ele><time>2026-04-25T14:00:25Z</time></trkpt><trkpt lat="59.0557407495" lon="29.9715701491"><ele>83.77</ele><time>2026-04-25T14:00:43Z</time></trkpt><trkpt lat="59.0557430126" lon="29.9715858232"><ele>83.29</ele><time>2026-04-25T14:01:06Z</time></trkpt><trkpt lat="59.0557325352" lon="29.9715595040"><ele>83.77</ele><time>2026-04-25T14:01:29Z</time></trkpt><trkpt lat="59.0557269193" lon="29.9715799559"><ele>83.29</ele><time>2026-04-25T14:01:54Z</time></trkpt><trkpt lat="59.0557207167" lon="29.9715466797"><ele>83.29</ele><time>2026-04-25T14:02:19Z</time></trkpt><trkpt lat="59.0557598602" lon="29.9715406448"><ele>82.81</ele><time>2026-04-25T14:02:49Z</time></trkpt><trkpt lat="59.0557519812" lon="29.9715471826"><ele>83.29</ele><time>2026-04-25T14:03:24Z</time></trkpt><trkpt lat="59.0557271708" lon="29.9715021718"><ele>84.25</ele><time>2026-04-25T14:03:45Z</time></trkpt><trkpt lat="59.0556940623" lon="29.9715807941"><ele>84.25</ele><time>2026-04-25T14:04:10Z</time></trkpt><trkpt lat="59.0557475388" lon="29.9715846498"><ele>83.77</ele><time>2026-04-25T14:04:33Z</time></trkpt><trkpt lat="59.0557587706" lon="29.9715923611"><ele>83.77</ele><time>2026-04-25T14:04:56Z</time></trkpt><trkpt lat="59.0557579324" lon="29.9717095401"><ele>83.77</ele><time>2026-04-25T14:05:07Z</time></trkpt><trkpt lat="59.0557247400" lon="29.9717495218"><ele>83.77</ele><time>2026-04-25T14:05:32Z</time></trkpt><trkpt lat="59.0557415038" lon="29.9718227796"><ele>83.77</ele><time>2026-04-25T14:05:50Z</time></trkpt><trkpt lat="59.0557635482" lon="29.9719646852"><ele>83.77</ele><time>2026-04-25T14:06:04Z</time></trkpt><trkpt lat="59.0557817370" lon="29.9722085148"><ele>83.77</ele><time>2026-04-25T14:06:23Z</time></trkpt><trkpt lat="59.0557761211" lon="29.9723686930"><ele>83.77</ele><time>2026-04-25T14:06:37Z</time></trkpt><trkpt lat="59.0557713434" lon="29.9724482372"><ele>83.77</ele><time>2026-04-25T14:06:54Z</time></trkpt><trkpt lat="59.0558043681" lon="29.9724660907"><ele>83.77</ele><time>2026-04-25T14:07:09Z</time></trkpt><trkpt lat="59.0557990875" lon="29.9725908972"><ele>83.77</ele><time>2026-04-25T14:07:31Z</time></trkpt><trkpt lat="59.0558222216" lon="29.9726663344"><ele>83.77</ele><time>2026-04-25T14:07:44Z</time></trkpt><trkpt lat="59.0558550786" lon="29.9728146940"><ele>83.77</ele><time>2026-04-25T14:07:57Z</time></trkpt><trkpt lat="59.0558264125" lon="29.9729452841"><ele>85.21</ele><time>2026-04-25T14:08:15Z</time></trkpt><trkpt lat="59.0558435954" lon="29.9730396643"><ele>83.29</ele><time>2026-04-25T14:08:30Z</time></trkpt><trkpt lat="59.0558485407" lon="29.9730822444"><ele>83.77</ele><time>2026-04-25T14:08:58Z</time></trkpt><trkpt lat="59.0558694117" lon="29.9730625469"><ele>83.29</ele><time>2026-04-25T14:09:23Z</time></trkpt><trkpt lat="59.0558635443" lon="29.9731290992"><ele>83.29</ele><time>2026-04-25T14:09:47Z</time></trkpt><trkpt lat="59.0558768716" lon="29.9732957315"><ele>83.29</ele><time>2026-04-25T14:10:00Z</time></trkpt><trkpt lat="59.0558743570" lon="29.9734628666"><ele>83.29</ele><time>2026-04-25T14:10:16Z</time></trkpt><trkpt lat="59.0558994189" lon="29.9736117292"><ele>83.77</ele><time>2026-04-25T14:10:28Z</time></trkpt><trkpt lat="59.0559079684" lon="29.9736968894"><ele>83.77</ele><time>2026-04-25T14:10:44Z</time></trkpt><trkpt lat="59.0559269954" lon="29.9738753401"><ele>83.77</ele><time>2026-04-25T14:10:56Z</time></trkpt><trkpt lat="59.0559484530" lon="29.9740104564"><ele>83.77</ele><time>2026-04-25T14:11:12Z</time></trkpt><trkpt lat="59.0559629537" lon="29.9741417170"><ele>83.29</ele><time>2026-04-25T14:11:32Z</time></trkpt><trkpt lat="59.0559848305" lon="29.9742968660"><ele>83.77</ele><time>2026-04-25T14:11:49Z</time></trkpt><trkpt lat="59.0560002532" lon="29.9742853828"><ele>83.77</ele><time>2026-04-25T14:12:08Z</time></trkpt><trkpt lat="59.0560276620" lon="29.9742944352"><ele>83.77</ele><time>2026-04-25T14:12:33Z</time></trkpt><trkpt lat="59.0559730958" lon="29.9742712174"><ele>83.77</ele><time>2026-04-25T14:13:02Z</time></trkpt><trkpt lat="59.0559983253" lon="29.9744543619"><ele>83.77</ele><time>2026-04-25T14:13:20Z</time></trkpt><trkpt lat="59.0560207888" lon="29.9745783303"><ele>83.77</ele><time>2026-04-25T14:13:38Z</time></trkpt><trkpt lat="59.0560599323" lon="29.9747379217"><ele>83.77</ele><time>2026-04-25T14:13:49Z</time></trkpt><trkpt lat="59.0560870059" lon="29.9749264307"><ele>83.29</ele><time>2026-04-25T14:14:01Z</time></trkpt><trkpt lat="59.0561308432" lon="29.9751224834"><ele>83.29</ele><time>2026-04-25T14:14:16Z</time></trkpt><trkpt lat="59.0561631136" lon="29.9753068015"><ele>83.29</ele><time>2026-04-25T14:14:31Z</time></trkpt><trkpt lat="59.0561569110" lon="29.9754248187"><ele>83.77</ele><time>2026-04-25T14:14:47Z</time></trkpt><trkpt lat="59.0560986567" lon="29.9755588453"><ele>83.29</ele><time>2026-04-25T14:15:01Z</time></trkpt><trkpt lat="59.0560735110" lon="29.9755625334"><ele>84.25</ele><time>2026-04-25T14:15:19Z</time></trkpt><trkpt lat="59.0561191924" lon="29.9755559955"><ele>84.25</ele><time>2026-04-25T14:15:42Z</time></trkpt><trkpt lat="59.0561512951" lon="29.9755088892"><ele>83.29</ele><time>2026-04-25T14:16:11Z</time></trkpt><trkpt lat="59.0561796259" lon="29.9754755292"><ele>83.77</ele><time>2026-04-25T14:16:46Z</time></trkpt><trkpt lat="59.0562234633" lon="29.9755811412"><ele>83.77</ele><time>2026-04-25T14:17:07Z</time></trkpt><trkpt lat="59.0563065279" lon="29.9755942170"><ele>83.77</ele><time>2026-04-25T14:17:25Z</time></trkpt><trkpt lat="59.0563687216" lon="29.9756792095"><ele>83.77</ele><time>2026-04-25T14:17:41Z</time></trkpt><trkpt lat="59.0564076137" lon="29.9757225439"><ele>83.77</ele><time>2026-04-25T14:17:58Z</time></trkpt><trkpt lat="59.0565064363" lon="29.9758081231"><ele>83.77</ele><time>2026-04-25T14:18:20Z</time></trkpt><trkpt lat="59.0565736592" lon="29.9759071972"><ele>83.77</ele><time>2026-04-25T14:18:36Z</time></trkpt><trkpt lat="59.0566578973" lon="29.9759082869"><ele>83.77</ele><time>2026-04-25T14:18:51Z</time></trkpt><trkpt lat="59.0566968732" lon="29.9759154953"><ele>83.77</ele><time>2026-04-25T14:19:08Z</time></trkpt><trkpt lat="59.0567728132" lon="29.9759995658"><ele>83.77</ele><time>2026-04-25T14:19:24Z</time></trkpt><trkpt lat="59.0568697080" lon="29.9760677107"><ele>83.77</ele><time>2026-04-25T14:19:38Z</time></trkpt><trkpt lat="59.0569257829" lon="29.9761071056"><ele>83.77</ele><time>2026-04-25T14:19:55Z</time></trkpt><trkpt lat="59.0569170658" lon="29.9761151522"><ele>83.77</ele><time>2026-04-25T14:20:19Z</time></trkpt><trkpt lat="59.0569157247" lon="29.9760976341"><ele>83.29</ele><time>2026-04-25T14:20:44Z</time></trkpt><trkpt lat="59.0569593944" lon="29.9761121348"><ele>83.77</ele><time>2026-04-25T14:20:59Z</time></trkpt><trkpt lat="59.0569837857" lon="29.9761812016"><ele>83.77</ele><time>2026-04-25T14:21:12Z</time></trkpt><trkpt lat="59.0569951013" lon="29.9761527870"><ele>83.77</ele><time>2026-04-25T14:21:27Z</time></trkpt><trkpt lat="59.0570818540" lon="29.9762141425"><ele>83.77</ele><time>2026-04-25T14:21:48Z</time></trkpt><trkpt lat="59.0571292117" lon="29.9762495141"><ele>83.29</ele><time>2026-04-25T14:22:05Z</time></trkpt><trkpt lat="59.0571643319" lon="29.9762984645"><ele>83.29</ele><time>2026-04-25T14:22:26Z</time></trkpt><trkpt lat="59.0572934970" lon="29.9763531983"><ele>83.77</ele><time>2026-04-25T14:22:40Z</time></trkpt><trkpt lat="59.0573328082" lon="29.9763660226"><ele>83.29</ele><time>2026-04-25T14:22:57Z</time></trkpt><trkpt lat="59.0574626438" lon="29.9764837045"><ele>83.29</ele><time>2026-04-25T14:23:16Z</time></trkpt><trkpt lat="59.0575436968" lon="29.9765532743"><ele>83.29</ele><time>2026-04-25T14:23:32Z</time></trkpt><trkpt lat="59.0576099139" lon="29.9765963573"><ele>83.29</ele><time>2026-04-25T14:23:47Z</time></trkpt><trkpt lat="59.0577001031" lon="29.9766516779"><ele>83.29</ele><time>2026-04-25T14:24:02Z</time></trkpt><trkpt lat="59.0577945672" lon="29.9766780809"><ele>83.29</ele><time>2026-04-25T14:24:17Z</time></trkpt><trkpt lat="59.0577782225" lon="29.9765550345"><ele>83.29</ele><time>2026-04-25T14:24:51Z</time></trkpt><trkpt lat="59.0578172822" lon="29.9765977822"><ele>83.29</ele><time>2026-04-25T14:25:13Z</time></trkpt><trkpt lat="59.0578245744" lon="29.9767230079"><ele>83.29</ele><time>2026-04-25T14:25:29Z</time></trkpt><trkpt lat="59.0578695852" lon="29.9767476507"><ele>83.77</ele><time>2026-04-25T14:25:49Z</time></trkpt><trkpt lat="59.0579845849" lon="29.9768506642"><ele>83.77</ele><time>2026-04-25T14:26:07Z</time></trkpt><trkpt lat="59.0580283385" lon="29.9768878799"><ele>83.77</ele><time>2026-04-25T14:26:25Z</time></trkpt><trkpt lat="59.0581347048" lon="29.9769737944"><ele>83.77</ele><time>2026-04-25T14:26:44Z</time></trkpt><trkpt lat="59.0582588408" lon="29.9770607986"><ele>84.25</ele><time>2026-04-25T14:27:05Z</time></trkpt><trkpt lat="59.0583424922" lon="29.9770485610"><ele>83.77</ele><time>2026-04-25T14:27:25Z</time></trkpt><trkpt lat="59.0583769418" lon="29.9771145266"><ele>83.77</ele><time>2026-04-25T14:27:48Z</time></trkpt><trkpt lat="59.0584766865" lon="29.9771686736"><ele>83.77</ele><time>2026-04-25T14:28:06Z</time></trkpt><trkpt lat="59.0585548058" lon="29.9771867786"><ele>83.77</ele><time>2026-04-25T14:28:25Z</time></trkpt><trkpt lat="59.0585827176" lon="29.9772540852"><ele>84.25</ele><time>2026-04-25T14:28:45Z</time></trkpt><trkpt lat="59.0586017445" lon="29.9771876168"><ele>84.25</ele><time>2026-04-25T14:29:12Z</time></trkpt><trkpt lat="59.0586704761" lon="29.9773220625"><ele>84.25</ele><time>2026-04-25T14:29:38Z</time></trkpt><trkpt lat="59.0587068535" lon="29.9773367308"><ele>84.25</ele><time>2026-04-25T14:29:57Z</time></trkpt><trkpt lat="59.0587374475" lon="29.9774166942"><ele>84.25</ele><time>2026-04-25T14:30:12Z</time></trkpt><trkpt lat="59.0588035807" lon="29.9773803167"><ele>84.25</ele><time>2026-04-25T14:30:27Z</time></trkpt><trkpt lat="59.0588801075" lon="29.9774465337"><ele>84.25</ele><time>2026-04-25T14:30:48Z</time></trkpt><trkpt lat="59.0589619149" lon="29.9775149301"><ele>84.73</ele><time>2026-04-25T14:31:06Z</time></trkpt><trkpt lat="59.0590208396" lon="29.9775956478"><ele>83.77</ele><time>2026-04-25T14:31:30Z</time></trkpt><trkpt lat="59.0590904094" lon="29.9775501341"><ele>84.73</ele><time>2026-04-25T14:31:50Z</time></trkpt><trkpt lat="59.0591758210" lon="29.9776285887"><ele>84.25</ele><time>2026-04-25T14:32:09Z</time></trkpt><trkpt lat="59.0592769068" lon="29.9776933808"><ele>84.25</ele><time>2026-04-25T14:32:27Z</time></trkpt><trkpt lat="59.0593655873" lon="29.9777658004"><ele>84.25</ele><time>2026-04-25T14:32:47Z</time></trkpt><trkpt lat="59.0594483167" lon="29.9777880963"><ele>84.25</ele><time>2026-04-25T14:33:07Z</time></trkpt><trkpt lat="59.0594374202" lon="29.9777080491"><ele>83.77</ele><time>2026-04-25T14:33:35Z</time></trkpt><trkpt lat="59.0594429523" lon="29.9778392259"><ele>84.25</ele><time>2026-04-25T14:33:57Z</time></trkpt><trkpt lat="59.0594757255" lon="29.9778305087"><ele>84.25</ele><time>2026-04-25T14:34:16Z</time></trkpt><trkpt lat="59.0596277732" lon="29.9779103883"><ele>84.25</ele><time>2026-04-25T14:34:35Z</time></trkpt><trkpt lat="59.0596611332" lon="29.9779588357"><ele>83.77</ele><time>2026-04-25T14:34:54Z</time></trkpt><trkpt lat="59.0597760491" lon="29.9780497793"><ele>83.77</ele><time>2026-04-25T14:35:13Z</time></trkpt><trkpt lat="59.0598142706" lon="29.9780269805"><ele>84.25</ele><time>2026-04-25T14:35:29Z</time></trkpt><trkpt lat="59.0598819964" lon="29.9780999869"><ele>83.77</ele><time>2026-04-25T14:35:45Z</time></trkpt><trkpt lat="59.0598923899" lon="29.9781314190"><ele>83.77</ele><time>2026-04-25T14:36:08Z</time></trkpt><trkpt lat="59.0598746203" lon="29.9780733325"><ele>83.29</ele><time>2026-04-25T14:36:34Z</time></trkpt><trkpt lat="59.0599701740" lon="29.9780839775"><ele>83.29</ele><time>2026-04-25T14:37:08Z</time></trkpt><trkpt lat="59.0599581040" lon="29.9781001545"><ele>83.29</ele><time>2026-04-25T14:37:49Z</time></trkpt><trkpt lat="59.0599584393" lon="29.9781216122"><ele>83.77</ele><time>2026-04-25T14:38:18Z</time></trkpt><trkpt lat="59.0599305276" lon="29.9781050161"><ele>83.77</ele><time>2026-04-25T14:38:38Z</time></trkpt><trkpt lat="59.0600267518" lon="29.9781871587"><ele>83.77</ele><time>2026-04-25T14:38:53Z</time></trkpt><trkpt lat="59.0601131693" lon="29.9782355223"><ele>83.77</ele><time>2026-04-25T14:39:08Z</time></trkpt><trkpt lat="59.0602119919" lon="29.9783027451"><ele>83.77</ele><time>2026-04-25T14:39:28Z</time></trkpt><trkpt lat="59.0603010077" lon="29.9783991370"><ele>83.77</ele><time>2026-04-25T14:39:43Z</time></trkpt><trkpt lat="59.0603602678" lon="29.9784131348"><ele>83.77</ele><time>2026-04-25T14:39:56Z</time></trkpt><trkpt lat="59.0603752714" lon="29.9784312397"><ele>83.77</ele><time>2026-04-25T14:40:16Z</time></trkpt><trkpt lat="59.0603567474" lon="29.9783379491"><ele>83.77</ele><time>2026-04-25T14:40:51Z</time></trkpt><trkpt lat="59.0603379719" lon="29.9782500230"><ele>84.25</ele><time>2026-04-25T14:41:11Z</time></trkpt><trkpt lat="59.0603200346" lon="29.9782226142"><ele>83.77</ele><time>2026-04-25T14:41:44Z</time></trkpt><trkpt lat="59.0603447612" lon="29.9782496877"><ele>83.77</ele><time>2026-04-25T14:42:08Z</time></trkpt><trkpt lat="59.0603352059" lon="29.9782886636"><ele>83.29</ele><time>2026-04-25T14:42:36Z</time></trkpt><trkpt lat="59.0603104793" lon="29.9783366919"><ele>83.29</ele><time>2026-04-25T14:42:57Z</time></trkpt><trkpt lat="59.0603868384" lon="29.9783735722"><ele>83.29</ele><time>2026-04-25T14:43:30Z</time></trkpt><trkpt lat="59.0604142472" lon="29.9783856422"><ele>83.29</ele><time>2026-04-25T14:44:01Z</time></trkpt><trkpt lat="59.0604005009" lon="29.9784221034"><ele>83.29</ele><time>2026-04-25T14:44:27Z</time></trkpt><trkpt lat="59.0603859164" lon="29.9784165714"><ele>83.29</ele><time>2026-04-25T14:44:55Z</time></trkpt><trkpt lat="59.0603406541" lon="29.9784029927"><ele>82.81</ele><time>2026-04-25T14:45:00Z</time></trkpt><trkpt lat="59.0601744410" lon="29.9783521984"><ele>82.81</ele><time>2026-04-25T14:45:28Z</time></trkpt><trkpt lat="59.0603657160" lon="29.9783843849"><ele>83.29</ele><time>2026-04-25T14:45:58Z</time></trkpt><trkpt lat="59.0603576694" lon="29.9783914257"><ele>82.81</ele><time>2026-04-25T14:46:15Z</time></trkpt><trkpt lat="59.0604151692" lon="29.9783242866"><ele>83.29</ele><time>2026-04-25T14:46:44Z</time></trkpt><trkpt lat="59.0603953879" lon="29.9783117976"><ele>83.29</ele><time>2026-04-25T14:47:09Z</time></trkpt><trkpt lat="59.0603754390" lon="29.9783460796"><ele>83.29</ele><time>2026-04-25T14:47:36Z</time></trkpt><trkpt lat="59.0604135767" lon="29.9783470016"><ele>83.29</ele><time>2026-04-25T14:48:03Z</time></trkpt><trkpt lat="59.0604354534" lon="29.9783320818"><ele>83.29</ele><time>2026-04-25T14:48:34Z</time></trkpt><trkpt lat="59.0604018420" lon="29.9783080257"><ele>83.29</ele><time>2026-04-25T14:49:04Z</time></trkpt><trkpt lat="59.0603710804" lon="29.9782760069"><ele>83.29</ele><time>2026-04-25T14:49:36Z</time></trkpt><trkpt lat="59.0603857487" lon="29.9782860652"><ele>84.25</ele><time>2026-04-25T14:50:05Z</time></trkpt><trkpt lat="59.0603724215" lon="29.9783475045"><ele>84.25</ele><time>2026-04-25T14:50:28Z</time></trkpt><trkpt lat="59.0603507124" lon="29.9784766696"><ele>83.77</ele><time>2026-04-25T14:50:52Z</time></trkpt><trkpt lat="59.0604176000" lon="29.9786060862"><ele>83.77</ele><time>2026-04-25T14:51:13Z</time></trkpt><trkpt lat="59.0604498703" lon="29.9787501711"><ele>84.25</ele><time>2026-04-25T14:51:30Z</time></trkpt><trkpt lat="59.0603796300" lon="29.9789336510"><ele>83.77</ele><time>2026-04-25T14:51:50Z</time></trkpt><trkpt lat="59.0603685658" lon="29.9790352397"><ele>83.77</ele><time>2026-04-25T14:52:09Z</time></trkpt><trkpt lat="59.0603307635" lon="29.9792168755"><ele>83.77</ele><time>2026-04-25T14:52:27Z</time></trkpt><trkpt lat="59.0603640396" lon="29.9793234933"><ele>83.77</ele><time>2026-04-25T14:52:47Z</time></trkpt><trkpt lat="59.0603879280" lon="29.9795532413"><ele>83.77</ele><time>2026-04-25T14:53:13Z</time></trkpt><trkpt lat="59.0603909455" lon="29.9797327816"><ele>83.77</ele><time>2026-04-25T14:53:32Z</time></trkpt><trkpt lat="59.0604252275" lon="29.9799291696"><ele>83.77</ele><time>2026-04-25T14:53:55Z</time></trkpt><trkpt lat="59.0604238026" lon="29.9800587539"><ele>84.25</ele><time>2026-04-25T14:54:15Z</time></trkpt><trkpt lat="59.0604214557" lon="29.9802859873"><ele>83.77</ele><time>2026-04-25T14:54:36Z</time></trkpt><trkpt lat="59.0604494512" lon="29.9803563114"><ele>84.25</ele><time>2026-04-25T14:54:58Z</time></trkpt><trkpt lat="59.0604159236" lon="29.9802351929"><ele>83.77</ele><time>2026-04-25T14:55:19Z</time></trkpt><trkpt lat="59.0603961423" lon="29.9802513700"><ele>84.25</ele><time>2026-04-25T14:55:45Z</time></trkpt><trkpt lat="59.0603995789" lon="29.9804867338"><ele>84.25</ele><time>2026-04-25T14:56:02Z</time></trkpt><trkpt lat="59.0604545642" lon="29.9806156475"><ele>84.25</ele><time>2026-04-25T14:56:24Z</time></trkpt><trkpt lat="59.0604627784" lon="29.9806919228"><ele>84.25</ele><time>2026-04-25T14:56:42Z</time></trkpt><trkpt lat="59.0603922866" lon="29.9807539489"><ele>84.73</ele><time>2026-04-25T14:56:58Z</time></trkpt><trkpt lat="59.0604199469" lon="29.9808709603"><ele>84.73</ele><time>2026-04-25T14:57:18Z</time></trkpt><trkpt lat="59.0604122356" lon="29.9809253588"><ele>84.73</ele><time>2026-04-25T14:57:41Z</time></trkpt><trkpt lat="59.0603756066" lon="29.9810260255"><ele>84.73</ele><time>2026-04-25T14:58:00Z</time></trkpt><trkpt lat="59.0603255667" lon="29.9812327232"><ele>84.73</ele><time>2026-04-25T14:58:21Z</time></trkpt><trkpt lat="59.0603952203" lon="29.9813064840"><ele>85.21</ele><time>2026-04-25T14:58:35Z</time></trkpt><trkpt lat="59.0603790432" lon="29.9814157840"><ele>85.21</ele><time>2026-04-25T14:58:56Z</time></trkpt><trkpt lat="59.0604027640" lon="29.9815816619"><ele>84.73</ele><time>2026-04-25T14:59:14Z</time></trkpt><trkpt lat="59.0603427496" lon="29.9817478750"><ele>84.73</ele><time>2026-04-25T14:59:30Z</time></trkpt><trkpt lat="59.0603403188" lon="29.9818575941"><ele>84.73</ele><time>2026-04-25T14:59:44Z</time></trkpt><trkpt lat="59.0603779536" lon="29.9819719233"><ele>84.73</ele><time>2026-04-25T14:59:57Z</time></trkpt><trkpt lat="59.0603909455" lon="29.9820585921"><ele>85.21</ele><time>2026-04-25T15:00:11Z</time></trkpt><trkpt lat="59.0603942145" lon="29.9820745178"><ele>84.73</ele><time>2026-04-25T15:00:25Z</time></trkpt><trkpt lat="59.0603680629" lon="29.9820772838"><ele>84.73</ele><time>2026-04-25T15:00:39Z</time></trkpt><trkpt lat="59.0603504609" lon="29.9822068680"><ele>84.73</ele><time>2026-04-25T15:00:56Z</time></trkpt><trkpt lat="59.0603045281" lon="29.9822481908"><ele>84.73</ele><time>2026-04-25T15:01:07Z</time></trkpt><trkpt lat="59.0603150893" lon="29.9823432416"><ele>84.73</ele><time>2026-04-25T15:01:29Z</time></trkpt><trkpt lat="59.0603103116" lon="29.9822609313"><ele>84.73</ele><time>2026-04-25T15:01:51Z</time></trkpt><trkpt lat="59.0602771193" lon="29.9821748491"><ele>84.25</ele><time>2026-04-25T15:02:26Z</time></trkpt><trkpt lat="59.0602711681" lon="29.9821741786"><ele>84.25</ele><time>2026-04-25T15:02:27Z</time></trkpt><trkpt lat="59.0601428412" lon="29.9821520504"><ele>84.73</ele><time>2026-04-25T15:02:44Z</time></trkpt><trkpt lat="59.0599821601" lon="29.9821498711"><ele>84.25</ele><time>2026-04-25T15:03:01Z</time></trkpt><trkpt lat="59.0598551743" lon="29.9820860848"><ele>84.25</ele><time>2026-04-25T15:03:18Z</time></trkpt><trkpt lat="59.0597957466" lon="29.9820846599"><ele>84.73</ele><time>2026-04-25T15:03:37Z</time></trkpt><trkpt lat="59.0597236622" lon="29.9821019266"><ele>84.25</ele><time>2026-04-25T15:03:52Z</time></trkpt><trkpt lat="59.0596417710" lon="29.9820253160"><ele>84.25</ele><time>2026-04-25T15:04:04Z</time></trkpt><trkpt lat="59.0595628135" lon="29.9819671456"><ele>84.25</ele><time>2026-04-25T15:04:19Z</time></trkpt><trkpt lat="59.0594145376" lon="29.9819186982"><ele>84.25</ele><time>2026-04-25T15:04:34Z</time></trkpt><trkpt lat="59.0592411160" lon="29.9819102325"><ele>84.25</ele><time>2026-04-25T15:04:50Z</time></trkpt><trkpt lat="59.0591960214" lon="29.9818362202"><ele>84.25</ele><time>2026-04-25T15:05:06Z</time></trkpt><trkpt lat="59.0591795091" lon="29.9818217196"><ele>84.25</ele><time>2026-04-25T15:05:32Z</time></trkpt><trkpt lat="59.0591198299" lon="29.9818260781"><ele>83.29</ele><time>2026-04-25T15:05:55Z</time></trkpt><trkpt lat="59.0590079315" lon="29.9817584362"><ele>83.29</ele><time>2026-04-25T15:06:09Z</time></trkpt><trkpt lat="59.0588611644" lon="29.9817454442"><ele>83.29</ele><time>2026-04-25T15:06:26Z</time></trkpt><trkpt lat="59.0588097833" lon="29.9816854298"><ele>83.77</ele><time>2026-04-25T15:06:40Z</time></trkpt><trkpt lat="59.0587489307" lon="29.9816138484"><ele>83.77</ele><time>2026-04-25T15:06:56Z</time></trkpt><trkpt lat="59.0586655308" lon="29.9815669097"><ele>83.29</ele><time>2026-04-25T15:07:10Z</time></trkpt><trkpt lat="59.0585997328" lon="29.9814872816"><ele>83.29</ele><time>2026-04-25T15:07:27Z</time></trkpt><trkpt lat="59.0585315041" lon="29.9815612100"><ele>83.77</ele><time>2026-04-25T15:07:42Z</time></trkpt><trkpt lat="59.0585164167" lon="29.9815862719"><ele>83.29</ele><time>2026-04-25T15:07:58Z</time></trkpt><trkpt lat="59.0585328452" lon="29.9815726094"><ele>83.77</ele><time>2026-04-25T15:08:25Z</time></trkpt><trkpt lat="59.0585261397" lon="29.9816251639"><ele>83.29</ele><time>2026-04-25T15:08:58Z</time></trkpt><trkpt lat="59.0584529657" lon="29.9815998506"><ele>83.29</ele><time>2026-04-25T15:09:17Z</time></trkpt><trkpt lat="59.0583204478" lon="29.9815793987"><ele>82.81</ele><time>2026-04-25T15:09:36Z</time></trkpt><trkpt lat="59.0582110640" lon="29.9815373216"><ele>82.81</ele><time>2026-04-25T15:09:52Z</time></trkpt><trkpt lat="59.0581787936" lon="29.9814905506"><ele>83.29</ele><time>2026-04-25T15:10:11Z</time></trkpt><trkpt lat="59.0581646282" lon="29.9814533349"><ele>82.81</ele><time>2026-04-25T15:10:32Z</time></trkpt><trkpt lat="59.0581313521" lon="29.9814363196"><ele>82.81</ele><time>2026-04-25T15:10:57Z</time></trkpt><trkpt lat="59.0581190307" lon="29.9814079888"><ele>83.29</ele><time>2026-04-25T15:11:14Z</time></trkpt><trkpt lat="59.0580374748" lon="29.9813866150"><ele>82.81</ele><time>2026-04-25T15:11:31Z</time></trkpt><trkpt lat="59.0579428431" lon="29.9813276064"><ele>82.81</ele><time>2026-04-25T15:11:48Z</time></trkpt><trkpt lat="59.0578551684" lon="29.9812568631"><ele>82.81</ele><time>2026-04-25T15:12:06Z</time></trkpt><trkpt lat="59.0577795636" lon="29.9812727887"><ele>82.81</ele><time>2026-04-25T15:12:21Z</time></trkpt><trkpt lat="59.0577135980" lon="29.9812945817"><ele>82.81</ele><time>2026-04-25T15:12:37Z</time></trkpt><trkpt lat="59.0575899649" lon="29.9813089985"><ele>82.81</ele><time>2026-04-25T15:12:51Z</time></trkpt><trkpt lat="59.0574967582" lon="29.9812651612"><ele>82.33</ele><time>2026-04-25T15:13:06Z</time></trkpt><trkpt lat="59.0573935769" lon="29.9812090024"><ele>82.33</ele><time>2026-04-25T15:13:22Z</time></trkpt><trkpt lat="59.0572932456" lon="29.9812162109"><ele>82.33</ele><time>2026-04-25T15:13:37Z</time></trkpt><trkpt lat="59.0572093427" lon="29.9812013749"><ele>82.33</ele><time>2026-04-25T15:13:54Z</time></trkpt><trkpt lat="59.0571417008" lon="29.9811908137"><ele>81.85</ele><time>2026-04-25T15:14:11Z</time></trkpt><trkpt lat="59.0570659284" lon="29.9810981099"><ele>81.85</ele><time>2026-04-25T15:14:35Z</time></trkpt><trkpt lat="59.0569774155" lon="29.9810977746"><ele>81.85</ele><time>2026-04-25T15:14:49Z</time></trkpt><trkpt lat="59.0568733122" lon="29.9810862914"><ele>81.85</ele><time>2026-04-25T15:15:06Z</time></trkpt><trkpt lat="59.0567858890" lon="29.9810484052"><ele>81.85</ele><time>2026-04-25T15:15:20Z</time></trkpt><trkpt lat="59.0567122959" lon="29.9809994549"><ele>82.33</ele><time>2026-04-25T15:15:34Z</time></trkpt><trkpt lat="59.0566902515" lon="29.9810128659"><ele>82.33</ele><time>2026-04-25T15:16:03Z</time></trkpt><trkpt lat="59.0566826239" lon="29.9811432883"><ele>81.85</ele><time>2026-04-25T15:16:35Z</time></trkpt><trkpt lat="59.0566756669" lon="29.9811468925"><ele>82.33</ele><time>2026-04-25T15:17:05Z</time></trkpt><trkpt lat="59.0566025767" lon="29.9810337368"><ele>82.33</ele><time>2026-04-25T15:17:31Z</time></trkpt><trkpt lat="59.0564871579" lon="29.9809776619"><ele>82.33</ele><time>2026-04-25T15:17:47Z</time></trkpt><trkpt lat="59.0563819651" lon="29.9809372611"><ele>82.33</ele><time>2026-04-25T15:18:00Z</time></trkpt><trkpt lat="59.0562959667" lon="29.9809080083"><ele>82.81</ele><time>2026-04-25T15:18:13Z</time></trkpt><trkpt lat="59.0561956353" lon="29.9808675237"><ele>82.81</ele><time>2026-04-25T15:18:28Z</time></trkpt><trkpt lat="59.0561341122" lon="29.9808103591"><ele>82.81</ele><time>2026-04-25T15:18:46Z</time></trkpt><trkpt lat="59.0560875926" lon="29.9808197469"><ele>81.37</ele><time>2026-04-25T15:19:10Z</time></trkpt><trkpt lat="59.0560576692" lon="29.9808246922"><ele>83.29</ele><time>2026-04-25T15:19:22Z</time></trkpt><trkpt lat="59.0560288355" lon="29.9808185734"><ele>83.77</ele><time>2026-04-25T15:19:33Z</time></trkpt></trkseg></trk></gpx>